SUN3245 KLAX-SCEL
Flight info
| Callsign | SUN3245 |
|---|---|
| Flight time | 9h 34m |
| Altitude | 35000 |
| Route | PNDAH2 OTAYY DCT TIJ UT4 LMM UJ3 GDL UJ7 UPN UT145 ACA UL344 POGAM/N0493F370 UL401 ESDIN/N0482F390 UL401 VTN VTN1D |
| Aircraft | A35K/H-SDE2E3GHIJ3J4J5LM1ORWXY/LB1D1 |
Departure
| Time | 2026-04-24 11:48 |
|---|---|
| Airport | Los Angeles International Airport (KLAX) |
Arrival
| Time | 2026-04-24 21:23 |
|---|---|
| Airport | Comodoro Arturo Merino Benítez International Airport (SCEL) |
| Time | Latitude | Longitude | Altitude | Speed | Heading |
|---|---|---|---|---|---|
| 2026-04-24 11:35 | 33.94521 | -118.41148 | 128 ft | 0 kts | 96° |
| 2026-04-24 11:41 | 33.94524 | -118.41175 | 126 ft | 4 kts | 96° |
| 2026-04-24 11:41 | 33.94526 | -118.41203 | 131 ft | 4 kts | 84° |
| 2026-04-24 11:42 | 33.94518 | -118.41231 | 131 ft | 4 kts | 46° |
| 2026-04-24 11:42 | 33.94497 | -118.41248 | 131 ft | 4 kts | 13° |
| 2026-04-24 11:42 | 33.94470 | -118.41251 | 129 ft | 4 kts | 355° |
| 2026-04-24 11:42 | 33.94444 | -118.41247 | 123 ft | 4 kts | 353° |
| 2026-04-24 11:43 | 33.94427 | -118.41245 | 128 ft | 0 kts | 353° |
| 2026-04-24 11:44 | 33.94428 | -118.41245 | 128 ft | 0 kts | 353° |
| 2026-04-24 11:44 | 33.94432 | -118.41245 | 131 ft | 3 kts | 354° |
| 2026-04-24 11:44 | 33.94475 | -118.41251 | 131 ft | 8 kts | 354° |
| 2026-04-24 11:45 | 33.94532 | -118.41261 | 120 ft | 9 kts | 352° |
| 2026-04-24 11:45 | 33.94600 | -118.41272 | 129 ft | 11 kts | 352° |
| 2026-04-24 11:45 | 33.94677 | -118.41283 | 129 ft | 12 kts | 353° |
| 2026-04-24 11:45 | 33.94762 | -118.41285 | 126 ft | 13 kts | 17° |
| 2026-04-24 11:46 | 33.94802 | -118.41200 | 124 ft | 13 kts | 82° |
| 2026-04-24 11:46 | 33.94816 | -118.41068 | 122 ft | 19 kts | 83° |
| 2026-04-24 11:46 | 33.94835 | -118.40888 | 124 ft | 24 kts | 83° |
| 2026-04-24 11:46 | 33.94857 | -118.40673 | 130 ft | 26 kts | 83° |
| 2026-04-24 11:47 | 33.94880 | -118.40450 | 124 ft | 27 kts | 83° |
| 2026-04-24 11:47 | 33.94905 | -118.40227 | 126 ft | 22 kts | 72° |
| 2026-04-24 11:47 | 33.94988 | -118.40189 | 129 ft | 14 kts | 347° |
| 2026-04-24 11:47 | 33.95010 | -118.40252 | 124 ft | 10 kts | 265° |
| 2026-04-24 11:48 | 33.94978 | -118.40579 | 123 ft | 73 kts | 263° |
| 2026-04-24 11:48 | 33.94889 | -118.41439 | 125 ft | 132 kts | 263° |
| 2026-04-24 11:48 | 33.94757 | -118.42752 | 210 ft | 177 kts | 262° |
| 2026-04-24 11:48 | 33.94628 | -118.44172 | 1064 ft | 164 kts | 263° |
| 2026-04-24 11:49 | 33.94525 | -118.45493 | 1843 ft | 160 kts | 267° |
| 2026-04-24 11:49 | 33.94433 | -118.46916 | 2048 ft | 179 kts | 266° |
| 2026-04-24 11:49 | 33.94370 | -118.47961 | 2220 ft | 191 kts | 268° |
| 2026-04-24 11:49 | 33.94298 | -118.49632 | 2483 ft | 210 kts | 268° |
| 2026-04-24 11:50 | 33.94231 | -118.51466 | 2640 ft | 234 kts | 266° |
| 2026-04-24 11:50 | 33.94083 | -118.53507 | 2920 ft | 253 kts | 264° |
| 2026-04-24 11:50 | 33.93892 | -118.55638 | 3528 ft | 258 kts | 264° |
| 2026-04-24 11:50 | 33.93706 | -118.57793 | 4179 ft | 260 kts | 264° |
| 2026-04-24 11:51 | 33.93494 | -118.59967 | 4819 ft | 264 kts | 260° |
| 2026-04-24 11:51 | 33.92849 | -118.62020 | 5396 ft | 267 kts | 236° |
| 2026-04-24 11:51 | 33.91495 | -118.63551 | 6050 ft | 269 kts | 208° |
| 2026-04-24 11:51 | 33.89695 | -118.64166 | 6688 ft | 272 kts | 182° |
| 2026-04-24 11:52 | 33.87794 | -118.64106 | 7365 ft | 275 kts | 176° |
| 2026-04-24 11:52 | 33.85872 | -118.63931 | 8042 ft | 278 kts | 176° |
| 2026-04-24 11:52 | 33.83965 | -118.63483 | 8701 ft | 282 kts | 159° |
| 2026-04-24 11:52 | 33.82238 | -118.62352 | 9390 ft | 285 kts | 147° |
| 2026-04-24 11:53 | 33.80593 | -118.61001 | 10073 ft | 288 kts | 145° |
| 2026-04-24 11:53 | 33.78920 | -118.59607 | 10473 ft | 302 kts | 146° |
| 2026-04-24 11:53 | 33.77136 | -118.58134 | 10793 ft | 319 kts | 146° |
| 2026-04-24 11:53 | 33.75251 | -118.56591 | 11130 ft | 334 kts | 146° |
| 2026-04-24 11:54 | 33.73283 | -118.54984 | 11437 ft | 350 kts | 146° |
| 2026-04-24 11:54 | 33.71307 | -118.53178 | 11758 ft | 364 kts | 142° |
| 2026-04-24 11:54 | 33.69312 | -118.51253 | 12281 ft | 370 kts | 141° |
| 2026-04-24 11:54 | 33.67324 | -118.49285 | 12881 ft | 374 kts | 140° |
| 2026-04-24 11:55 | 33.65316 | -118.47270 | 13503 ft | 377 kts | 140° |
| 2026-04-24 11:55 | 33.63296 | -118.45230 | 14106 ft | 381 kts | 140° |
| 2026-04-24 11:55 | 33.61265 | -118.43179 | 14687 ft | 384 kts | 140° |
| 2026-04-24 11:55 | 33.59209 | -118.41106 | 15261 ft | 387 kts | 140° |
| 2026-04-24 11:56 | 33.57140 | -118.39025 | 15813 ft | 391 kts | 140° |
| 2026-04-24 11:56 | 33.55074 | -118.36951 | 16376 ft | 394 kts | 140° |
| 2026-04-24 11:56 | 33.52962 | -118.34834 | 16901 ft | 397 kts | 140° |
| 2026-04-24 11:56 | 33.50832 | -118.32701 | 17440 ft | 400 kts | 140° |
| 2026-04-24 11:57 | 33.48692 | -118.30560 | 17975 ft | 403 kts | 140° |
| 2026-04-24 11:57 | 33.46527 | -118.28396 | 18520 ft | 407 kts | 140° |
| 2026-04-24 11:57 | 33.44351 | -118.26223 | 19049 ft | 410 kts | 140° |
| 2026-04-24 11:57 | 33.42151 | -118.24025 | 19591 ft | 413 kts | 140° |
| 2026-04-24 11:58 | 33.39933 | -118.21812 | 20131 ft | 416 kts | 140° |
| 2026-04-24 11:58 | 33.37697 | -118.19583 | 20669 ft | 420 kts | 140° |
| 2026-04-24 11:58 | 33.35451 | -118.17344 | 21152 ft | 423 kts | 140° |
| 2026-04-24 11:58 | 33.33179 | -118.15082 | 21669 ft | 426 kts | 140° |
| 2026-04-24 11:59 | 33.30891 | -118.12805 | 22157 ft | 429 kts | 140° |
| 2026-04-24 11:59 | 33.28593 | -118.10520 | 22634 ft | 432 kts | 140° |
| 2026-04-24 11:59 | 33.26269 | -118.08211 | 23105 ft | 435 kts | 140° |
| 2026-04-24 11:59 | 33.23930 | -118.05888 | 23565 ft | 438 kts | 140° |
| 2026-04-24 12:00 | 33.21581 | -118.03557 | 24020 ft | 441 kts | 140° |
| 2026-04-24 12:00 | 33.19209 | -118.01205 | 24468 ft | 444 kts | 140° |
| 2026-04-24 12:00 | 33.16819 | -117.98837 | 24901 ft | 447 kts | 140° |
| 2026-04-24 12:00 | 33.14414 | -117.96456 | 25325 ft | 450 kts | 140° |
| 2026-04-24 12:01 | 33.12000 | -117.94068 | 25743 ft | 453 kts | 140° |
| 2026-04-24 12:01 | 33.09564 | -117.91658 | 26148 ft | 456 kts | 140° |
| 2026-04-24 12:01 | 33.07119 | -117.89243 | 26554 ft | 459 kts | 140° |
| 2026-04-24 12:01 | 33.04651 | -117.86807 | 26933 ft | 461 kts | 140° |
| 2026-04-24 12:02 | 33.02201 | -117.84390 | 27316 ft | 464 kts | 140° |
| 2026-04-24 12:02 | 32.99703 | -117.81928 | 27689 ft | 467 kts | 140° |
| 2026-04-24 12:02 | 32.97199 | -117.79462 | 28049 ft | 469 kts | 140° |
| 2026-04-24 12:02 | 32.94672 | -117.76975 | 28408 ft | 472 kts | 140° |
| 2026-04-24 12:03 | 32.92131 | -117.74476 | 28755 ft | 474 kts | 140° |
| 2026-04-24 12:03 | 32.89576 | -117.71965 | 29090 ft | 477 kts | 140° |
| 2026-04-24 12:03 | 32.87017 | -117.69452 | 29411 ft | 479 kts | 141° |
| 2026-04-24 12:03 | 32.84435 | -117.66919 | 29720 ft | 482 kts | 141° |
| 2026-04-24 12:04 | 32.81841 | -117.64376 | 30023 ft | 484 kts | 141° |
| 2026-04-24 12:04 | 32.79234 | -117.61822 | 30302 ft | 486 kts | 141° |
| 2026-04-24 12:04 | 32.76624 | -117.59267 | 30570 ft | 488 kts | 141° |
| 2026-04-24 12:04 | 32.73994 | -117.56695 | 30835 ft | 490 kts | 141° |
| 2026-04-24 12:05 | 32.71362 | -117.54122 | 31092 ft | 492 kts | 141° |
| 2026-04-24 12:05 | 32.68712 | -117.51535 | 31365 ft | 493 kts | 141° |
| 2026-04-24 12:05 | 32.66064 | -117.48951 | 31716 ft | 492 kts | 141° |
| 2026-04-24 12:05 | 32.63428 | -117.46381 | 32040 ft | 491 kts | 141° |
| 2026-04-24 12:06 | 32.60787 | -117.43808 | 32335 ft | 491 kts | 141° |
| 2026-04-24 12:06 | 32.58181 | -117.41271 | 32640 ft | 490 kts | 141° |
| 2026-04-24 12:06 | 32.55517 | -117.38680 | 32926 ft | 490 kts | 141° |
| 2026-04-24 12:06 | 32.52917 | -117.36153 | 33207 ft | 489 kts | 141° |
| 2026-04-24 12:07 | 32.50283 | -117.33595 | 33477 ft | 489 kts | 141° |
| 2026-04-24 12:07 | 32.47661 | -117.31051 | 33737 ft | 488 kts | 141° |
| 2026-04-24 12:07 | 32.45034 | -117.28503 | 33990 ft | 488 kts | 141° |
| 2026-04-24 12:07 | 32.42406 | -117.25957 | 34239 ft | 487 kts | 141° |
| 2026-04-24 12:08 | 32.39792 | -117.23426 | 34451 ft | 487 kts | 141° |
| 2026-04-24 12:08 | 32.37169 | -117.20889 | 34686 ft | 486 kts | 141° |
| 2026-04-24 12:08 | 32.34548 | -117.18356 | 34900 ft | 486 kts | 141° |
| 2026-04-24 12:08 | 32.31923 | -117.15820 | 35008 ft | 488 kts | 141° |
| 2026-04-24 12:09 | 32.26627 | -117.10711 | 35007 ft | 496 kts | 141° |
| 2026-04-24 12:09 | 32.21231 | -117.05513 | 35000 ft | 503 kts | 141° |
| 2026-04-24 12:10 | 32.15784 | -117.00274 | 34995 ft | 506 kts | 141° |
| 2026-04-24 12:11 | 32.07569 | -116.92389 | 35002 ft | 508 kts | 141° |
| 2026-04-24 12:11 | 32.02080 | -116.87132 | 34997 ft | 509 kts | 141° |
| 2026-04-24 12:12 | 31.96610 | -116.81901 | 34998 ft | 509 kts | 141° |
| 2026-04-24 12:12 | 31.91110 | -116.76649 | 34993 ft | 509 kts | 141° |
| 2026-04-24 12:13 | 31.85599 | -116.71395 | 35005 ft | 509 kts | 141° |
| 2026-04-24 12:13 | 31.80095 | -116.66156 | 35001 ft | 509 kts | 141° |
| 2026-04-24 12:14 | 31.74590 | -116.60925 | 35005 ft | 509 kts | 141° |
| 2026-04-24 12:14 | 31.69072 | -116.55689 | 35002 ft | 509 kts | 141° |
| 2026-04-24 12:15 | 31.63558 | -116.50466 | 34999 ft | 510 kts | 141° |
| 2026-04-24 12:15 | 31.58028 | -116.45235 | 35001 ft | 512 kts | 141° |
| 2026-04-24 12:16 | 31.52517 | -116.40031 | 34999 ft | 511 kts | 141° |
| 2026-04-24 12:16 | 31.46927 | -116.34761 | 35002 ft | 512 kts | 141° |
| 2026-04-24 12:17 | 31.41411 | -116.29568 | 35005 ft | 512 kts | 141° |
| 2026-04-24 12:17 | 31.35861 | -116.24352 | 34991 ft | 512 kts | 141° |
| 2026-04-24 12:18 | 31.30314 | -116.19146 | 35004 ft | 511 kts | 141° |
| 2026-04-24 12:18 | 31.24762 | -116.13944 | 35000 ft | 511 kts | 141° |
| 2026-04-24 12:19 | 31.19218 | -116.08758 | 35003 ft | 511 kts | 141° |
| 2026-04-24 12:19 | 31.13658 | -116.03564 | 34998 ft | 511 kts | 141° |
| 2026-04-24 12:20 | 31.08102 | -115.98383 | 35004 ft | 512 kts | 141° |
| 2026-04-24 12:20 | 31.02537 | -115.93201 | 35005 ft | 512 kts | 141° |
| 2026-04-24 12:21 | 30.96999 | -115.88051 | 35005 ft | 512 kts | 141° |
| 2026-04-24 12:21 | 30.91432 | -115.82884 | 34998 ft | 512 kts | 141° |
| 2026-04-24 12:22 | 30.85853 | -115.77713 | 35005 ft | 513 kts | 141° |
| 2026-04-24 12:22 | 30.80262 | -115.72538 | 34994 ft | 514 kts | 141° |
| 2026-04-24 12:23 | 30.74658 | -115.67359 | 35005 ft | 514 kts | 142° |
| 2026-04-24 12:23 | 30.69052 | -115.62187 | 34999 ft | 515 kts | 142° |
| 2026-04-24 12:24 | 30.63435 | -115.57013 | 35004 ft | 516 kts | 142° |
| 2026-04-24 12:24 | 30.57819 | -115.51846 | 35002 ft | 516 kts | 142° |
| 2026-04-24 12:25 | 30.52186 | -115.46673 | 34997 ft | 516 kts | 142° |
| 2026-04-24 12:25 | 30.46599 | -115.41549 | 35002 ft | 515 kts | 142° |
| 2026-04-24 12:26 | 30.40973 | -115.36399 | 35000 ft | 516 kts | 142° |
| 2026-04-24 12:26 | 30.35342 | -115.31251 | 35005 ft | 515 kts | 142° |
| 2026-04-24 12:27 | 30.29703 | -115.26102 | 34994 ft | 516 kts | 142° |
| 2026-04-24 12:27 | 30.24077 | -115.20974 | 35003 ft | 515 kts | 142° |
| 2026-04-24 12:28 | 30.18457 | -115.15860 | 35001 ft | 514 kts | 142° |
| 2026-04-24 12:28 | 30.12825 | -115.10741 | 35005 ft | 515 kts | 142° |
| 2026-04-24 12:29 | 30.07196 | -115.05633 | 34999 ft | 515 kts | 142° |
| 2026-04-24 12:29 | 30.01570 | -115.00536 | 35002 ft | 514 kts | 142° |
| 2026-04-24 12:30 | 29.95938 | -114.95440 | 35005 ft | 514 kts | 142° |
| 2026-04-24 12:30 | 29.90314 | -114.90360 | 34999 ft | 514 kts | 142° |
| 2026-04-24 12:31 | 29.84723 | -114.85317 | 35002 ft | 514 kts | 142° |
| 2026-04-24 12:31 | 29.79054 | -114.80210 | 35000 ft | 514 kts | 142° |
| 2026-04-24 12:32 | 29.73449 | -114.75169 | 35005 ft | 514 kts | 142° |
| 2026-04-24 12:32 | 29.67817 | -114.70111 | 35001 ft | 514 kts | 142° |
| 2026-04-24 12:33 | 29.62180 | -114.65056 | 34998 ft | 515 kts | 142° |
| 2026-04-24 12:33 | 29.56521 | -114.59988 | 35003 ft | 516 kts | 142° |
| 2026-04-24 12:34 | 29.50863 | -114.54929 | 35005 ft | 516 kts | 142° |
| 2026-04-24 12:34 | 29.45207 | -114.49879 | 35003 ft | 515 kts | 142° |
| 2026-04-24 12:35 | 29.39541 | -114.44828 | 34999 ft | 515 kts | 142° |
| 2026-04-24 12:35 | 29.33877 | -114.39785 | 34998 ft | 515 kts | 142° |
| 2026-04-24 12:36 | 29.28221 | -114.34757 | 34997 ft | 515 kts | 142° |
| 2026-04-24 12:36 | 29.22589 | -114.29758 | 35005 ft | 515 kts | 142° |
| 2026-04-24 12:37 | 29.16931 | -114.24742 | 35002 ft | 514 kts | 142° |
| 2026-04-24 12:37 | 29.11280 | -114.19740 | 34990 ft | 513 kts | 142° |
| 2026-04-24 12:38 | 29.05628 | -114.14744 | 34992 ft | 513 kts | 142° |
| 2026-04-24 12:38 | 28.99990 | -114.09768 | 35005 ft | 512 kts | 142° |
| 2026-04-24 12:39 | 28.88727 | -113.99848 | 34995 ft | 512 kts | 142° |
| 2026-04-24 12:40 | 28.84011 | -113.95702 | 34998 ft | 511 kts | 142° |
| 2026-04-24 12:40 | 28.78362 | -113.90743 | 35000 ft | 512 kts | 142° |
| 2026-04-24 12:41 | 28.72721 | -113.85799 | 35001 ft | 512 kts | 142° |
| 2026-04-24 12:41 | 28.67077 | -113.80858 | 34995 ft | 512 kts | 142° |
| 2026-04-24 12:42 | 28.61447 | -113.75936 | 35002 ft | 514 kts | 142° |
| 2026-04-24 12:42 | 28.55759 | -113.70970 | 35002 ft | 515 kts | 142° |
| 2026-04-24 12:43 | 28.50067 | -113.66008 | 35001 ft | 516 kts | 142° |
| 2026-04-24 12:43 | 28.44368 | -113.61046 | 35002 ft | 516 kts | 142° |
| 2026-04-24 12:44 | 28.38654 | -113.56079 | 34996 ft | 517 kts | 143° |
| 2026-04-24 12:44 | 28.32947 | -113.51125 | 35006 ft | 516 kts | 143° |
| 2026-04-24 12:45 | 28.27259 | -113.46194 | 34999 ft | 514 kts | 143° |
| 2026-04-24 12:45 | 28.21613 | -113.41306 | 35002 ft | 513 kts | 143° |
| 2026-04-24 12:46 | 28.15940 | -113.36402 | 34998 ft | 513 kts | 143° |
| 2026-04-24 12:46 | 28.10267 | -113.31504 | 35005 ft | 513 kts | 143° |
| 2026-04-24 12:47 | 28.04583 | -113.26603 | 35005 ft | 512 kts | 143° |
| 2026-04-24 12:47 | 27.98915 | -113.21723 | 34992 ft | 512 kts | 143° |
| 2026-04-24 12:48 | 27.93235 | -113.16840 | 35003 ft | 512 kts | 143° |
| 2026-04-24 12:48 | 27.87569 | -113.11974 | 34996 ft | 511 kts | 143° |
| 2026-04-24 12:49 | 27.81901 | -113.07113 | 34993 ft | 512 kts | 143° |
| 2026-04-24 12:49 | 27.76219 | -113.02248 | 35002 ft | 514 kts | 143° |
| 2026-04-24 12:50 | 27.70522 | -112.97376 | 35002 ft | 514 kts | 143° |
| 2026-04-24 12:50 | 27.64813 | -112.92500 | 35001 ft | 514 kts | 143° |
| 2026-04-24 12:51 | 27.59121 | -112.87645 | 34998 ft | 513 kts | 143° |
| 2026-04-24 12:51 | 27.53455 | -112.82819 | 35002 ft | 513 kts | 143° |
| 2026-04-24 12:52 | 27.47764 | -112.77978 | 35001 ft | 512 kts | 143° |
| 2026-04-24 12:52 | 27.42077 | -112.73147 | 35002 ft | 512 kts | 143° |
| 2026-04-24 12:53 | 27.36394 | -112.68326 | 34999 ft | 512 kts | 143° |
| 2026-04-24 12:53 | 27.30702 | -112.63503 | 35002 ft | 512 kts | 143° |
| 2026-04-24 12:54 | 27.25040 | -112.58712 | 34996 ft | 512 kts | 143° |
| 2026-04-24 12:54 | 27.19338 | -112.53893 | 35000 ft | 514 kts | 143° |
| 2026-04-24 12:55 | 27.13614 | -112.49063 | 35005 ft | 513 kts | 143° |
| 2026-04-24 12:55 | 27.07902 | -112.44248 | 34996 ft | 514 kts | 143° |
| 2026-04-24 12:56 | 27.02178 | -112.39430 | 35000 ft | 515 kts | 143° |
| 2026-04-24 12:56 | 26.96446 | -112.34611 | 34999 ft | 514 kts | 143° |
| 2026-04-24 12:57 | 26.90722 | -112.29806 | 34997 ft | 514 kts | 143° |
| 2026-04-24 12:57 | 26.85001 | -112.25009 | 35001 ft | 514 kts | 143° |
| 2026-04-24 12:58 | 26.79305 | -112.20240 | 35006 ft | 514 kts | 143° |
| 2026-04-24 12:58 | 26.73544 | -112.15422 | 35000 ft | 513 kts | 143° |
| 2026-04-24 12:59 | 26.67865 | -112.10678 | 35005 ft | 513 kts | 143° |
| 2026-04-24 12:59 | 26.62148 | -112.05910 | 34998 ft | 513 kts | 143° |
| 2026-04-24 13:00 | 26.56417 | -112.01136 | 35001 ft | 514 kts | 143° |
| 2026-04-24 13:00 | 26.50675 | -111.96359 | 35005 ft | 514 kts | 143° |
| 2026-04-24 13:01 | 26.44942 | -111.91595 | 35000 ft | 514 kts | 143° |
| 2026-04-24 13:01 | 26.39201 | -111.86830 | 35001 ft | 513 kts | 143° |
| 2026-04-24 13:02 | 26.33476 | -111.82085 | 34998 ft | 513 kts | 143° |
| 2026-04-24 13:02 | 26.27751 | -111.77346 | 34998 ft | 513 kts | 143° |
| 2026-04-24 13:03 | 26.22012 | -111.72602 | 35003 ft | 513 kts | 143° |
| 2026-04-24 13:03 | 26.16274 | -111.67863 | 34995 ft | 514 kts | 143° |
| 2026-04-24 13:04 | 26.10516 | -111.63115 | 34997 ft | 514 kts | 143° |
| 2026-04-24 13:04 | 26.04764 | -111.58376 | 34997 ft | 515 kts | 143° |
| 2026-04-24 13:05 | 25.99002 | -111.53637 | 34996 ft | 515 kts | 143° |
| 2026-04-24 13:05 | 25.93231 | -111.48896 | 35004 ft | 515 kts | 143° |
| 2026-04-24 13:06 | 25.87478 | -111.44175 | 34997 ft | 514 kts | 143° |
| 2026-04-24 13:06 | 25.81715 | -111.39453 | 34995 ft | 516 kts | 143° |
| 2026-04-24 13:07 | 25.75971 | -111.34751 | 35004 ft | 516 kts | 143° |
| 2026-04-24 13:07 | 25.70170 | -111.30008 | 34999 ft | 513 kts | 143° |
| 2026-04-24 13:08 | 25.64428 | -111.25320 | 35003 ft | 513 kts | 144° |
| 2026-04-24 13:08 | 25.58715 | -111.20661 | 35005 ft | 513 kts | 144° |
| 2026-04-24 13:09 | 25.50064 | -111.13617 | 34996 ft | 512 kts | 144° |
| 2026-04-24 13:09 | 25.44352 | -111.08973 | 35005 ft | 513 kts | 144° |
| 2026-04-24 13:10 | 25.38592 | -111.04295 | 34999 ft | 513 kts | 144° |
| 2026-04-24 13:10 | 25.32844 | -110.99633 | 35004 ft | 512 kts | 144° |
| 2026-04-24 13:11 | 25.27110 | -110.94989 | 35002 ft | 511 kts | 144° |
| 2026-04-24 13:11 | 25.21375 | -110.90348 | 34994 ft | 510 kts | 144° |
| 2026-04-24 13:12 | 25.15653 | -110.85724 | 34996 ft | 510 kts | 144° |
| 2026-04-24 13:12 | 25.09931 | -110.81105 | 35003 ft | 510 kts | 144° |
| 2026-04-24 13:13 | 25.04209 | -110.76492 | 35001 ft | 510 kts | 144° |
| 2026-04-24 13:13 | 24.98475 | -110.71875 | 35001 ft | 510 kts | 144° |
| 2026-04-24 13:14 | 24.92749 | -110.67269 | 35003 ft | 510 kts | 144° |
| 2026-04-24 13:14 | 24.87023 | -110.62669 | 34999 ft | 510 kts | 144° |
| 2026-04-24 13:15 | 24.81294 | -110.58072 | 34999 ft | 510 kts | 144° |
| 2026-04-24 13:15 | 24.75546 | -110.53464 | 35000 ft | 510 kts | 144° |
| 2026-04-24 13:16 | 24.69852 | -110.48906 | 35001 ft | 510 kts | 144° |
| 2026-04-24 13:16 | 24.64120 | -110.44322 | 34998 ft | 510 kts | 144° |
| 2026-04-24 13:17 | 24.58385 | -110.39742 | 34991 ft | 510 kts | 144° |
| 2026-04-24 13:17 | 24.52597 | -110.35124 | 34996 ft | 510 kts | 144° |
| 2026-04-24 13:18 | 24.46884 | -110.30572 | 35000 ft | 511 kts | 144° |
| 2026-04-24 13:18 | 24.41137 | -110.25997 | 34999 ft | 510 kts | 144° |
| 2026-04-24 13:19 | 24.35394 | -110.21432 | 35000 ft | 510 kts | 144° |
| 2026-04-24 13:19 | 24.29652 | -110.16872 | 35001 ft | 510 kts | 144° |
| 2026-04-24 13:20 | 24.23899 | -110.12308 | 34998 ft | 510 kts | 144° |
| 2026-04-24 13:20 | 24.18153 | -110.07756 | 35004 ft | 510 kts | 144° |
| 2026-04-24 13:21 | 24.12384 | -110.03190 | 34993 ft | 512 kts | 144° |
| 2026-04-24 13:21 | 24.06618 | -109.98632 | 35005 ft | 511 kts | 144° |
| 2026-04-24 13:22 | 24.00860 | -109.94086 | 35001 ft | 510 kts | 144° |
| 2026-04-24 13:22 | 23.95097 | -109.89541 | 35000 ft | 510 kts | 144° |
| 2026-04-24 13:23 | 23.89339 | -109.85004 | 34999 ft | 511 kts | 144° |
| 2026-04-24 13:23 | 23.83564 | -109.80459 | 34999 ft | 512 kts | 144° |
| 2026-04-24 13:24 | 23.77786 | -109.75917 | 35000 ft | 512 kts | 144° |
| 2026-04-24 13:24 | 23.72000 | -109.71374 | 34997 ft | 511 kts | 144° |
| 2026-04-24 13:25 | 23.66232 | -109.66850 | 35004 ft | 510 kts | 144° |
| 2026-04-24 13:25 | 23.60469 | -109.62336 | 35005 ft | 510 kts | 144° |
| 2026-04-24 13:26 | 23.54696 | -109.57818 | 34994 ft | 510 kts | 144° |
| 2026-04-24 13:26 | 23.48959 | -109.53333 | 35004 ft | 510 kts | 144° |
| 2026-04-24 13:27 | 23.43184 | -109.48824 | 35005 ft | 511 kts | 144° |
| 2026-04-24 13:27 | 23.37403 | -109.44314 | 34999 ft | 511 kts | 144° |
| 2026-04-24 13:28 | 23.32560 | -109.40541 | 34995 ft | 510 kts | 144° |
| 2026-04-24 13:28 | 23.26791 | -109.36050 | 34995 ft | 510 kts | 144° |
| 2026-04-24 13:29 | 23.21022 | -109.31564 | 35003 ft | 510 kts | 144° |
| 2026-04-24 13:29 | 23.15282 | -109.27105 | 35004 ft | 510 kts | 144° |
| 2026-04-24 13:30 | 23.09512 | -109.22629 | 34995 ft | 510 kts | 144° |
| 2026-04-24 13:30 | 23.03740 | -109.18155 | 35002 ft | 510 kts | 144° |
| 2026-04-24 13:31 | 22.97967 | -109.13685 | 35002 ft | 510 kts | 144° |
| 2026-04-24 13:31 | 22.92185 | -109.09213 | 34998 ft | 510 kts | 144° |
| 2026-04-24 13:32 | 22.86409 | -109.04751 | 35002 ft | 510 kts | 144° |
| 2026-04-24 13:32 | 22.80632 | -109.00293 | 34995 ft | 510 kts | 144° |
| 2026-04-24 13:33 | 22.74855 | -108.95839 | 34998 ft | 510 kts | 144° |
| 2026-04-24 13:33 | 22.69066 | -108.91381 | 35004 ft | 510 kts | 144° |
| 2026-04-24 13:34 | 22.63285 | -108.86933 | 35002 ft | 510 kts | 144° |
| 2026-04-24 13:34 | 22.57504 | -108.82490 | 35004 ft | 510 kts | 144° |
| 2026-04-24 13:35 | 22.51721 | -108.78051 | 35001 ft | 510 kts | 144° |
| 2026-04-24 13:35 | 22.45965 | -108.73638 | 35004 ft | 510 kts | 144° |
| 2026-04-24 13:36 | 22.40179 | -108.69205 | 34996 ft | 510 kts | 144° |
| 2026-04-24 13:36 | 22.34393 | -108.64776 | 35004 ft | 510 kts | 145° |
| 2026-04-24 13:37 | 22.28605 | -108.60351 | 35005 ft | 510 kts | 145° |
| 2026-04-24 13:37 | 22.22806 | -108.55923 | 35005 ft | 510 kts | 145° |
| 2026-04-24 13:38 | 22.17016 | -108.51506 | 34996 ft | 510 kts | 145° |
| 2026-04-24 13:38 | 22.11214 | -108.47084 | 35005 ft | 510 kts | 145° |
| 2026-04-24 13:39 | 22.05420 | -108.42673 | 34998 ft | 510 kts | 145° |
| 2026-04-24 13:39 | 21.99617 | -108.38259 | 34995 ft | 510 kts | 145° |
| 2026-04-24 13:40 | 21.93822 | -108.33856 | 35001 ft | 510 kts | 145° |
| 2026-04-24 13:40 | 21.88025 | -108.29456 | 35000 ft | 510 kts | 145° |
| 2026-04-24 13:41 | 21.82227 | -108.25060 | 35003 ft | 510 kts | 145° |
| 2026-04-24 13:41 | 21.76457 | -108.20689 | 34997 ft | 510 kts | 145° |
| 2026-04-24 13:42 | 21.70655 | -108.16299 | 35001 ft | 510 kts | 145° |
| 2026-04-24 13:42 | 21.64845 | -108.11906 | 34996 ft | 510 kts | 145° |
| 2026-04-24 13:43 | 21.59042 | -108.07524 | 34997 ft | 510 kts | 145° |
| 2026-04-24 13:43 | 21.53229 | -108.03138 | 35004 ft | 510 kts | 145° |
| 2026-04-24 13:44 | 21.47423 | -107.98762 | 35001 ft | 510 kts | 145° |
| 2026-04-24 13:44 | 21.41617 | -107.94391 | 35001 ft | 510 kts | 145° |
| 2026-04-24 13:45 | 21.35799 | -107.90015 | 34999 ft | 510 kts | 145° |
| 2026-04-24 13:45 | 21.29989 | -107.85649 | 34998 ft | 510 kts | 145° |
| 2026-04-24 13:46 | 21.24180 | -107.81288 | 34996 ft | 510 kts | 145° |
| 2026-04-24 13:46 | 21.18359 | -107.76922 | 34999 ft | 510 kts | 145° |
| 2026-04-24 13:47 | 21.12547 | -107.72567 | 35000 ft | 510 kts | 145° |
| 2026-04-24 13:47 | 21.06772 | -107.68245 | 35004 ft | 510 kts | 145° |
| 2026-04-24 13:48 | 21.00948 | -107.63889 | 35003 ft | 510 kts | 145° |
| 2026-04-24 13:48 | 20.95132 | -107.59544 | 35004 ft | 510 kts | 145° |
| 2026-04-24 13:49 | 20.89314 | -107.55203 | 35004 ft | 510 kts | 145° |
| 2026-04-24 13:49 | 20.83496 | -107.50864 | 34997 ft | 510 kts | 145° |
| 2026-04-24 13:50 | 20.77667 | -107.46523 | 35001 ft | 510 kts | 145° |
| 2026-04-24 13:50 | 20.71847 | -107.42191 | 34997 ft | 510 kts | 145° |
| 2026-04-24 13:51 | 20.66015 | -107.37856 | 34997 ft | 510 kts | 145° |
| 2026-04-24 13:51 | 20.60191 | -107.33530 | 35003 ft | 510 kts | 145° |
| 2026-04-24 13:52 | 20.54367 | -107.29208 | 34997 ft | 510 kts | 145° |
| 2026-04-24 13:52 | 20.48534 | -107.24883 | 35002 ft | 510 kts | 145° |
| 2026-04-24 13:53 | 20.42707 | -107.20567 | 34996 ft | 510 kts | 145° |
| 2026-04-24 13:53 | 20.36918 | -107.16284 | 34996 ft | 510 kts | 145° |
| 2026-04-24 13:54 | 20.31079 | -107.11967 | 35004 ft | 510 kts | 145° |
| 2026-04-24 13:54 | 20.25249 | -107.07661 | 34999 ft | 510 kts | 145° |
| 2026-04-24 13:55 | 20.19409 | -107.03352 | 35000 ft | 510 kts | 145° |
| 2026-04-24 13:55 | 20.13578 | -106.99053 | 34998 ft | 510 kts | 145° |
| 2026-04-24 13:56 | 20.07735 | -106.94750 | 34999 ft | 510 kts | 145° |
| 2026-04-24 13:56 | 20.01900 | -106.90456 | 35000 ft | 510 kts | 145° |
| 2026-04-24 13:57 | 19.96056 | -106.86159 | 35003 ft | 510 kts | 145° |
| 2026-04-24 13:57 | 19.90220 | -106.81873 | 34998 ft | 510 kts | 145° |
| 2026-04-24 13:58 | 19.84382 | -106.77589 | 35003 ft | 510 kts | 145° |
| 2026-04-24 13:58 | 19.78573 | -106.73329 | 34998 ft | 510 kts | 146° |
| 2026-04-24 13:59 | 19.72733 | -106.69051 | 35001 ft | 510 kts | 146° |
| 2026-04-24 13:59 | 19.66893 | -106.64778 | 34996 ft | 510 kts | 146° |
| 2026-04-24 14:00 | 19.61042 | -106.60499 | 35003 ft | 510 kts | 146° |
| 2026-04-24 14:00 | 19.55199 | -106.56232 | 35003 ft | 510 kts | 146° |
| 2026-04-24 14:01 | 19.49356 | -106.51967 | 35000 ft | 510 kts | 146° |
| 2026-04-24 14:01 | 19.43501 | -106.47697 | 35004 ft | 510 kts | 146° |
| 2026-04-24 14:02 | 19.37655 | -106.43438 | 35001 ft | 510 kts | 146° |
| 2026-04-24 14:02 | 19.31809 | -106.39182 | 34998 ft | 510 kts | 146° |
| 2026-04-24 14:03 | 19.25960 | -106.34929 | 35000 ft | 510 kts | 146° |
| 2026-04-24 14:03 | 19.20102 | -106.30672 | 34999 ft | 510 kts | 146° |
| 2026-04-24 14:04 | 19.14251 | -106.26424 | 34998 ft | 510 kts | 146° |
| 2026-04-24 14:04 | 19.08401 | -106.22181 | 35003 ft | 510 kts | 146° |
| 2026-04-24 14:05 | 19.02538 | -106.17931 | 35000 ft | 510 kts | 146° |
| 2026-04-24 14:05 | 18.96685 | -106.13694 | 34996 ft | 510 kts | 146° |
| 2026-04-24 14:06 | 18.90832 | -106.09459 | 34998 ft | 510 kts | 146° |
| 2026-04-24 14:06 | 18.84976 | -106.05227 | 35003 ft | 510 kts | 146° |
| 2026-04-24 14:07 | 18.79149 | -106.01018 | 34999 ft | 510 kts | 146° |
| 2026-04-24 14:07 | 18.73292 | -105.96791 | 35001 ft | 510 kts | 146° |
| 2026-04-24 14:08 | 18.67434 | -105.92568 | 35003 ft | 510 kts | 146° |
| 2026-04-24 14:08 | 18.61574 | -105.88347 | 35003 ft | 510 kts | 146° |
| 2026-04-24 14:09 | 18.55704 | -105.84121 | 34997 ft | 510 kts | 146° |
| 2026-04-24 14:09 | 18.49843 | -105.79906 | 35003 ft | 510 kts | 146° |
| 2026-04-24 14:10 | 18.43971 | -105.75687 | 35002 ft | 510 kts | 146° |
| 2026-04-24 14:10 | 18.38108 | -105.71478 | 34997 ft | 510 kts | 146° |
| 2026-04-24 14:11 | 18.32244 | -105.67271 | 34998 ft | 510 kts | 146° |
| 2026-04-24 14:12 | 18.23441 | -105.60963 | 35003 ft | 510 kts | 146° |
| 2026-04-24 14:12 | 18.17564 | -105.56756 | 35003 ft | 510 kts | 146° |
| 2026-04-24 14:13 | 18.11697 | -105.52560 | 35003 ft | 510 kts | 146° |
| 2026-04-24 14:13 | 18.05828 | -105.48365 | 35003 ft | 510 kts | 146° |
| 2026-04-24 14:14 | 18.00955 | -105.44886 | 35003 ft | 510 kts | 146° |
| 2026-04-24 14:14 | 17.91187 | -105.37917 | 35002 ft | 510 kts | 146° |
| 2026-04-24 14:15 | 17.85315 | -105.33733 | 35003 ft | 510 kts | 146° |
| 2026-04-24 14:15 | 17.79443 | -105.29551 | 34999 ft | 510 kts | 146° |
| 2026-04-24 14:16 | 17.74556 | -105.26074 | 34998 ft | 510 kts | 146° |
| 2026-04-24 14:17 | 17.65739 | -105.19807 | 35001 ft | 510 kts | 146° |
| 2026-04-24 14:17 | 17.56910 | -105.13538 | 35004 ft | 510 kts | 146° |
| 2026-04-24 14:18 | 17.51032 | -105.09369 | 35003 ft | 510 kts | 146° |
| 2026-04-24 14:18 | 17.45154 | -105.05203 | 34998 ft | 510 kts | 146° |
| 2026-04-24 14:19 | 17.39264 | -105.01032 | 35000 ft | 510 kts | 146° |
| 2026-04-24 14:19 | 17.33385 | -104.96872 | 35002 ft | 510 kts | 146° |
| 2026-04-24 14:20 | 17.27532 | -104.92734 | 35001 ft | 510 kts | 146° |
| 2026-04-24 14:20 | 17.21651 | -104.88579 | 34996 ft | 510 kts | 146° |
| 2026-04-24 14:21 | 17.15767 | -104.84426 | 34997 ft | 510 kts | 146° |
| 2026-04-24 14:21 | 17.09874 | -104.80269 | 34997 ft | 510 kts | 146° |
| 2026-04-24 14:22 | 17.03990 | -104.76121 | 34998 ft | 510 kts | 146° |
| 2026-04-24 14:23 | 16.95156 | -104.69901 | 35003 ft | 510 kts | 146° |
| 2026-04-24 14:23 | 16.89260 | -104.65752 | 35003 ft | 510 kts | 146° |
| 2026-04-24 14:24 | 16.83372 | -104.61614 | 35002 ft | 510 kts | 146° |
| 2026-04-24 14:24 | 16.77483 | -104.57477 | 35004 ft | 510 kts | 146° |
| 2026-04-24 14:25 | 16.71623 | -104.53364 | 34997 ft | 510 kts | 146° |
| 2026-04-24 14:25 | 16.65732 | -104.49233 | 34995 ft | 510 kts | 146° |
| 2026-04-24 14:26 | 16.59840 | -104.45103 | 35003 ft | 510 kts | 146° |
| 2026-04-24 14:26 | 16.53948 | -104.40977 | 35002 ft | 510 kts | 146° |
| 2026-04-24 14:27 | 16.48046 | -104.36847 | 34998 ft | 510 kts | 146° |
| 2026-04-24 14:27 | 16.42152 | -104.32726 | 35003 ft | 510 kts | 146° |
| 2026-04-24 14:28 | 16.36257 | -104.28607 | 35001 ft | 510 kts | 146° |
| 2026-04-24 14:28 | 16.30351 | -104.24484 | 34998 ft | 510 kts | 146° |
| 2026-04-24 14:29 | 16.24455 | -104.20370 | 35003 ft | 510 kts | 146° |
| 2026-04-24 14:29 | 16.18587 | -104.16279 | 35003 ft | 510 kts | 146° |
| 2026-04-24 14:30 | 16.12689 | -104.12170 | 35004 ft | 510 kts | 146° |
| 2026-04-24 14:30 | 16.06780 | -104.08056 | 35003 ft | 510 kts | 146° |
| 2026-04-24 14:31 | 16.00880 | -104.03951 | 34996 ft | 510 kts | 146° |
| 2026-04-24 14:31 | 15.94980 | -103.99850 | 35004 ft | 510 kts | 146° |
| 2026-04-24 14:32 | 15.89068 | -103.95743 | 34986 ft | 510 kts | 146° |
| 2026-04-24 14:32 | 15.83166 | -103.91646 | 34998 ft | 510 kts | 146° |
| 2026-04-24 14:33 | 15.77262 | -103.87551 | 35003 ft | 511 kts | 146° |
| 2026-04-24 14:33 | 15.71388 | -103.83479 | 35003 ft | 510 kts | 146° |
| 2026-04-24 14:34 | 15.65483 | -103.79389 | 35001 ft | 510 kts | 146° |
| 2026-04-24 14:34 | 15.59577 | -103.75301 | 34996 ft | 511 kts | 146° |
| 2026-04-24 14:35 | 15.53670 | -103.71215 | 34986 ft | 511 kts | 146° |
| 2026-04-24 14:35 | 15.47753 | -103.67125 | 35001 ft | 511 kts | 146° |
| 2026-04-24 14:36 | 15.41843 | -103.63043 | 35004 ft | 511 kts | 146° |
| 2026-04-24 14:36 | 15.35936 | -103.58965 | 34986 ft | 511 kts | 146° |
| 2026-04-24 14:37 | 15.30026 | -103.54889 | 34999 ft | 511 kts | 146° |
| 2026-04-24 14:37 | 15.24106 | -103.50808 | 34998 ft | 511 kts | 146° |
| 2026-04-24 14:38 | 15.18194 | -103.46736 | 35003 ft | 511 kts | 146° |
| 2026-04-24 14:38 | 15.12272 | -103.42659 | 34997 ft | 511 kts | 146° |
| 2026-04-24 14:39 | 15.06359 | -103.38592 | 35003 ft | 511 kts | 146° |
| 2026-04-24 14:39 | 15.00445 | -103.34527 | 34999 ft | 511 kts | 146° |
| 2026-04-24 14:40 | 14.94530 | -103.30463 | 35004 ft | 511 kts | 146° |
| 2026-04-24 14:40 | 14.88615 | -103.26402 | 34997 ft | 511 kts | 146° |
| 2026-04-24 14:41 | 14.82689 | -103.22337 | 34986 ft | 511 kts | 146° |
| 2026-04-24 14:41 | 14.76812 | -103.18308 | 35004 ft | 511 kts | 147° |
| 2026-04-24 14:42 | 14.70894 | -103.14253 | 35003 ft | 511 kts | 147° |
| 2026-04-24 14:42 | 14.64976 | -103.10201 | 34998 ft | 511 kts | 147° |
| 2026-04-24 14:43 | 14.59056 | -103.06151 | 34999 ft | 511 kts | 147° |
| 2026-04-24 14:43 | 14.53127 | -103.02097 | 34998 ft | 511 kts | 147° |
| 2026-04-24 14:44 | 14.47206 | -102.98051 | 35003 ft | 511 kts | 147° |
| 2026-04-24 14:44 | 14.41284 | -102.94007 | 35003 ft | 511 kts | 147° |
| 2026-04-24 14:45 | 14.35362 | -102.89965 | 35000 ft | 511 kts | 147° |
| 2026-04-24 14:45 | 14.29429 | -102.85919 | 35004 ft | 511 kts | 147° |
| 2026-04-24 14:46 | 14.23506 | -102.81881 | 35003 ft | 511 kts | 147° |
| 2026-04-24 14:46 | 14.17571 | -102.77839 | 35001 ft | 511 kts | 147° |
| 2026-04-24 14:47 | 14.12642 | -102.74484 | 35000 ft | 511 kts | 147° |
| 2026-04-24 14:47 | 14.05720 | -102.69775 | 35003 ft | 511 kts | 147° |
| 2026-04-24 14:48 | 13.99823 | -102.65766 | 35002 ft | 511 kts | 147° |
| 2026-04-24 14:48 | 13.93896 | -102.61738 | 34998 ft | 511 kts | 147° |
| 2026-04-24 14:49 | 13.87967 | -102.57713 | 35001 ft | 511 kts | 147° |
| 2026-04-24 14:49 | 13.82029 | -102.53684 | 35002 ft | 511 kts | 147° |
| 2026-04-24 14:50 | 13.76100 | -102.49662 | 34999 ft | 511 kts | 147° |
| 2026-04-24 14:50 | 13.70168 | -102.45643 | 34998 ft | 511 kts | 147° |
| 2026-04-24 14:51 | 13.64238 | -102.41626 | 34986 ft | 511 kts | 147° |
| 2026-04-24 14:51 | 13.58297 | -102.37604 | 35003 ft | 511 kts | 147° |
| 2026-04-24 14:52 | 13.52364 | -102.33591 | 35004 ft | 511 kts | 147° |
| 2026-04-24 14:52 | 13.46421 | -102.29573 | 34998 ft | 511 kts | 147° |
| 2026-04-24 14:53 | 13.40488 | -102.25564 | 34997 ft | 511 kts | 147° |
| 2026-04-24 14:53 | 13.34593 | -102.21584 | 35003 ft | 511 kts | 147° |
| 2026-04-24 14:54 | 13.28648 | -102.17571 | 35003 ft | 511 kts | 147° |
| 2026-04-24 14:54 | 13.22711 | -102.13568 | 35003 ft | 511 kts | 147° |
| 2026-04-24 14:55 | 13.17734 | -102.10212 | 35003 ft | 511 kts | 147° |
| 2026-04-24 14:55 | 13.10838 | -102.05566 | 35003 ft | 511 kts | 147° |
| 2026-04-24 14:56 | 13.04900 | -102.01569 | 34999 ft | 511 kts | 147° |
| 2026-04-24 14:56 | 12.98952 | -101.97566 | 35003 ft | 511 kts | 147° |
| 2026-04-24 14:57 | 12.93013 | -101.93572 | 34986 ft | 511 kts | 147° |
| 2026-04-24 14:57 | 12.87073 | -101.89580 | 34986 ft | 511 kts | 147° |
| 2026-04-24 14:58 | 12.81122 | -101.85583 | 34986 ft | 511 kts | 147° |
| 2026-04-24 14:58 | 12.75181 | -101.81594 | 35000 ft | 511 kts | 147° |
| 2026-04-24 14:59 | 12.69239 | -101.77608 | 34997 ft | 511 kts | 147° |
| 2026-04-24 14:59 | 12.63287 | -101.73616 | 35004 ft | 511 kts | 147° |
| 2026-04-24 15:00 | 12.57383 | -101.69659 | 35004 ft | 511 kts | 147° |
| 2026-04-24 15:00 | 12.51429 | -101.65671 | 34987 ft | 511 kts | 147° |
| 2026-04-24 15:01 | 12.45484 | -101.61692 | 34997 ft | 511 kts | 147° |
| 2026-04-24 15:01 | 12.39529 | -101.57707 | 35004 ft | 511 kts | 147° |
| 2026-04-24 15:02 | 12.33584 | -101.53732 | 35004 ft | 511 kts | 147° |
| 2026-04-24 15:02 | 12.27637 | -101.49758 | 34986 ft | 511 kts | 147° |
| 2026-04-24 15:03 | 12.22690 | -101.46453 | 35004 ft | 511 kts | 147° |
| 2026-04-24 15:03 | 12.15742 | -101.41814 | 35003 ft | 511 kts | 147° |
| 2026-04-24 15:04 | 12.09784 | -101.37839 | 34999 ft | 511 kts | 147° |
| 2026-04-24 15:04 | 12.03835 | -101.33872 | 34997 ft | 511 kts | 147° |
| 2026-04-24 15:05 | 11.97885 | -101.29906 | 34986 ft | 511 kts | 147° |
| 2026-04-24 15:05 | 11.92935 | -101.26609 | 34997 ft | 511 kts | 147° |
| 2026-04-24 15:06 | 11.86984 | -101.22646 | 35004 ft | 511 kts | 147° |
| 2026-04-24 15:06 | 11.81033 | -101.18685 | 34986 ft | 511 kts | 147° |
| 2026-04-24 15:07 | 11.75071 | -101.14719 | 35004 ft | 511 kts | 147° |
| 2026-04-24 15:07 | 11.69118 | -101.10762 | 34999 ft | 511 kts | 147° |
| 2026-04-24 15:08 | 11.63156 | -101.06800 | 35003 ft | 511 kts | 147° |
| 2026-04-24 15:08 | 11.57202 | -101.02846 | 34986 ft | 511 kts | 147° |
| 2026-04-24 15:09 | 11.51247 | -100.98893 | 35004 ft | 511 kts | 147° |
| 2026-04-24 15:09 | 11.45322 | -100.94963 | 34986 ft | 511 kts | 147° |
| 2026-04-24 15:10 | 11.39367 | -100.91014 | 35004 ft | 511 kts | 147° |
| 2026-04-24 15:10 | 11.33401 | -100.87059 | 35004 ft | 511 kts | 147° |
| 2026-04-24 15:11 | 11.27444 | -100.83113 | 35004 ft | 511 kts | 147° |
| 2026-04-24 15:11 | 11.21487 | -100.79169 | 35005 ft | 511 kts | 147° |
| 2026-04-24 15:12 | 11.15529 | -100.75226 | 34999 ft | 511 kts | 147° |
| 2026-04-24 15:12 | 11.06575 | -100.69305 | 35003 ft | 511 kts | 147° |
| 2026-04-24 15:13 | 11.00617 | -100.65366 | 35002 ft | 511 kts | 147° |
| 2026-04-24 15:13 | 10.94657 | -100.61429 | 35003 ft | 511 kts | 147° |
| 2026-04-24 15:14 | 10.88686 | -100.57486 | 34986 ft | 511 kts | 147° |
| 2026-04-24 15:14 | 10.82726 | -100.53553 | 35002 ft | 511 kts | 147° |
| 2026-04-24 15:15 | 10.76793 | -100.49639 | 35004 ft | 511 kts | 147° |
| 2026-04-24 15:15 | 10.70832 | -100.45708 | 34999 ft | 511 kts | 147° |
| 2026-04-24 15:16 | 10.64859 | -100.41772 | 35004 ft | 511 kts | 147° |
| 2026-04-24 15:16 | 10.58896 | -100.37844 | 34999 ft | 511 kts | 147° |
| 2026-04-24 15:17 | 10.52962 | -100.33937 | 34997 ft | 511 kts | 147° |
| 2026-04-24 15:17 | 10.46997 | -100.30011 | 35005 ft | 511 kts | 147° |
| 2026-04-24 15:18 | 10.41031 | -100.26087 | 35004 ft | 511 kts | 147° |
| 2026-04-24 15:18 | 10.35067 | -100.22165 | 34999 ft | 511 kts | 147° |
| 2026-04-24 15:19 | 10.29091 | -100.18238 | 35004 ft | 511 kts | 147° |
| 2026-04-24 15:19 | 10.23125 | -100.14318 | 35001 ft | 511 kts | 147° |
| 2026-04-24 15:20 | 10.17158 | -100.10401 | 35004 ft | 511 kts | 147° |
| 2026-04-24 15:20 | 10.11180 | -100.06478 | 34986 ft | 511 kts | 147° |
| 2026-04-24 15:21 | 10.05211 | -100.02562 | 35000 ft | 511 kts | 147° |
| 2026-04-24 15:21 | 9.99233 | -99.98642 | 35000 ft | 511 kts | 147° |
| 2026-04-24 15:22 | 9.93304 | -99.94756 | 35003 ft | 511 kts | 147° |
| 2026-04-24 15:23 | 9.84344 | -99.88886 | 35004 ft | 511 kts | 147° |
| 2026-04-24 15:23 | 9.75384 | -99.83021 | 34986 ft | 511 kts | 147° |
| 2026-04-24 15:25 | 9.61454 | -99.73909 | 34998 ft | 511 kts | 147° |
| 2026-04-24 15:26 | 9.45513 | -99.63493 | 34996 ft | 511 kts | 147° |
| 2026-04-24 15:27 | 9.27581 | -99.51790 | 35003 ft | 511 kts | 147° |
| 2026-04-24 15:29 | 9.09694 | -99.40131 | 34999 ft | 511 kts | 147° |
| 2026-04-24 15:31 | 8.88749 | -99.26496 | 35002 ft | 511 kts | 147° |
| 2026-04-24 15:33 | 8.64864 | -99.10971 | 35000 ft | 511 kts | 147° |
| 2026-04-24 15:34 | 8.49898 | -99.01255 | 35000 ft | 511 kts | 147° |
| 2026-04-24 15:35 | 8.34940 | -98.91553 | 35003 ft | 511 kts | 147° |
| 2026-04-24 15:36 | 8.28958 | -98.87675 | 35003 ft | 511 kts | 147° |
| 2026-04-24 15:36 | 8.19979 | -98.81858 | 34986 ft | 511 kts | 147° |
| 2026-04-24 15:37 | 8.13986 | -98.77977 | 35004 ft | 511 kts | 147° |
| 2026-04-24 15:37 | 8.08001 | -98.74103 | 35004 ft | 511 kts | 147° |
| 2026-04-24 15:38 | 8.02017 | -98.70230 | 35003 ft | 511 kts | 147° |
| 2026-04-24 15:38 | 7.96023 | -98.66353 | 35002 ft | 511 kts | 147° |
| 2026-04-24 15:39 | 7.90038 | -98.62483 | 35004 ft | 511 kts | 147° |
| 2026-04-24 15:39 | 7.84083 | -98.58633 | 35003 ft | 511 kts | 147° |
| 2026-04-24 15:40 | 7.78097 | -98.54764 | 35005 ft | 511 kts | 147° |
| 2026-04-24 15:40 | 7.72111 | -98.50897 | 35003 ft | 511 kts | 147° |
| 2026-04-24 15:41 | 7.66114 | -98.47025 | 35004 ft | 511 kts | 147° |
| 2026-04-24 15:41 | 7.60127 | -98.43161 | 35001 ft | 511 kts | 147° |
| 2026-04-24 15:42 | 7.54139 | -98.39297 | 35002 ft | 511 kts | 147° |
| 2026-04-24 15:42 | 7.48142 | -98.35427 | 35004 ft | 511 kts | 147° |
| 2026-04-24 15:43 | 7.42154 | -98.31566 | 35001 ft | 511 kts | 147° |
| 2026-04-24 15:43 | 7.36145 | -98.27692 | 35004 ft | 511 kts | 147° |
| 2026-04-24 15:44 | 7.30157 | -98.23833 | 35003 ft | 511 kts | 147° |
| 2026-04-24 15:44 | 7.24207 | -98.19999 | 35003 ft | 511 kts | 147° |
| 2026-04-24 15:45 | 7.18208 | -98.16135 | 34999 ft | 511 kts | 147° |
| 2026-04-24 15:45 | 7.12218 | -98.12278 | 35004 ft | 511 kts | 147° |
| 2026-04-24 15:46 | 7.06227 | -98.08422 | 35001 ft | 511 kts | 147° |
| 2026-04-24 15:46 | 7.00236 | -98.04568 | 35001 ft | 511 kts | 147° |
| 2026-04-24 15:47 | 6.94235 | -98.00707 | 35000 ft | 511 kts | 147° |
| 2026-04-24 15:47 | 6.88243 | -97.96854 | 35002 ft | 511 kts | 147° |
| 2026-04-24 15:48 | 6.82251 | -97.93002 | 34986 ft | 511 kts | 147° |
| 2026-04-24 15:48 | 6.76259 | -97.89150 | 35004 ft | 511 kts | 147° |
| 2026-04-24 15:49 | 6.70256 | -97.85294 | 35002 ft | 511 kts | 147° |
| 2026-04-24 15:49 | 6.64263 | -97.81444 | 35003 ft | 511 kts | 147° |
| 2026-04-24 15:50 | 6.58270 | -97.77596 | 35003 ft | 511 kts | 147° |
| 2026-04-24 15:50 | 6.52266 | -97.73742 | 35003 ft | 511 kts | 147° |
| 2026-04-24 15:51 | 6.46272 | -97.69895 | 34986 ft | 511 kts | 147° |
| 2026-04-24 15:51 | 6.40278 | -97.66050 | 35004 ft | 511 kts | 147° |
| 2026-04-24 15:52 | 6.34273 | -97.62198 | 35003 ft | 511 kts | 147° |
| 2026-04-24 15:52 | 6.28278 | -97.58354 | 35003 ft | 511 kts | 147° |
| 2026-04-24 15:53 | 6.22281 | -97.54510 | 35003 ft | 511 kts | 147° |
| 2026-04-24 15:53 | 6.16286 | -97.50668 | 35000 ft | 511 kts | 147° |
| 2026-04-24 15:54 | 6.10320 | -97.46846 | 35000 ft | 511 kts | 147° |
| 2026-04-24 15:54 | 6.04323 | -97.43005 | 35005 ft | 511 kts | 147° |
| 2026-04-24 15:55 | 5.98316 | -97.39158 | 34999 ft | 511 kts | 147° |
| 2026-04-24 15:55 | 5.93326 | -97.35964 | 34986 ft | 511 kts | 148° |
| 2026-04-24 15:56 | 5.87330 | -97.32126 | 35001 ft | 511 kts | 148° |
| 2026-04-24 15:56 | 5.81332 | -97.28288 | 35001 ft | 511 kts | 148° |
| 2026-04-24 15:57 | 5.75334 | -97.24451 | 34986 ft | 511 kts | 148° |
| 2026-04-24 15:57 | 5.69325 | -97.20609 | 35004 ft | 511 kts | 148° |
| 2026-04-24 15:58 | 5.63327 | -97.16773 | 34998 ft | 511 kts | 148° |
| 2026-04-24 15:58 | 5.57318 | -97.12932 | 35000 ft | 511 kts | 148° |
| 2026-04-24 15:59 | 5.51318 | -97.09098 | 35002 ft | 511 kts | 148° |
| 2026-04-24 15:59 | 5.45319 | -97.05265 | 35002 ft | 511 kts | 148° |
| 2026-04-24 16:00 | 5.39349 | -97.01452 | 35000 ft | 511 kts | 148° |
| 2026-04-24 16:00 | 5.33348 | -96.97620 | 35003 ft | 511 kts | 148° |
| 2026-04-24 16:01 | 5.27348 | -96.93789 | 35005 ft | 511 kts | 148° |
| 2026-04-24 16:01 | 5.21347 | -96.89958 | 34986 ft | 511 kts | 148° |
| 2026-04-24 16:02 | 5.15335 | -96.86122 | 35004 ft | 511 kts | 148° |
| 2026-04-24 16:02 | 5.09334 | -96.82293 | 35004 ft | 511 kts | 148° |
| 2026-04-24 16:03 | 5.03333 | -96.78465 | 34998 ft | 511 kts | 148° |
| 2026-04-24 16:03 | 4.97330 | -96.74637 | 35002 ft | 511 kts | 148° |
| 2026-04-24 16:04 | 4.91318 | -96.70804 | 34986 ft | 511 kts | 148° |
| 2026-04-24 16:04 | 4.85316 | -96.66978 | 35003 ft | 511 kts | 148° |
| 2026-04-24 16:05 | 4.76307 | -96.61237 | 35004 ft | 511 kts | 148° |
| 2026-04-24 16:06 | 4.67337 | -96.55522 | 35004 ft | 511 kts | 148° |
| 2026-04-24 16:07 | 4.58327 | -96.49784 | 35003 ft | 511 kts | 148° |
| 2026-04-24 16:07 | 4.49316 | -96.44046 | 34986 ft | 511 kts | 148° |
| 2026-04-24 16:08 | 4.40304 | -96.38310 | 35003 ft | 511 kts | 148° |
| 2026-04-24 16:09 | 4.31292 | -96.32576 | 34986 ft | 511 kts | 148° |
| 2026-04-24 16:09 | 4.25287 | -96.28756 | 35002 ft | 511 kts | 148° |
| 2026-04-24 16:11 | 4.10268 | -96.19204 | 34986 ft | 512 kts | 148° |
| 2026-04-24 16:11 | 4.04251 | -96.15379 | 35001 ft | 511 kts | 148° |
| 2026-04-24 16:12 | 3.95276 | -96.09674 | 34996 ft | 511 kts | 148° |
| 2026-04-24 16:13 | 3.86232 | -96.03927 | 35003 ft | 512 kts | 148° |
| 2026-04-24 16:14 | 3.74248 | -95.96314 | 34999 ft | 512 kts | 148° |
| 2026-04-24 16:14 | 3.65232 | -95.90588 | 35000 ft | 512 kts | 148° |
| 2026-04-24 16:15 | 3.56216 | -95.84864 | 35001 ft | 512 kts | 148° |
| 2026-04-24 16:16 | 3.47207 | -95.79145 | 35002 ft | 512 kts | 148° |
| 2026-04-24 16:17 | 3.32172 | -95.69604 | 35001 ft | 512 kts | 148° |
| 2026-04-24 16:18 | 3.20194 | -95.62005 | 35001 ft | 512 kts | 148° |
| 2026-04-24 16:19 | 3.11174 | -95.56285 | 35002 ft | 512 kts | 148° |
| 2026-04-24 16:20 | 3.02156 | -95.50566 | 35000 ft | 512 kts | 148° |
| 2026-04-24 16:20 | 2.93136 | -95.44848 | 35003 ft | 512 kts | 148° |
| 2026-04-24 16:21 | 2.84115 | -95.39130 | 35003 ft | 512 kts | 148° |
| 2026-04-24 16:22 | 2.78136 | -95.35341 | 35004 ft | 512 kts | 148° |
| 2026-04-24 16:22 | 2.69115 | -95.29625 | 35003 ft | 512 kts | 148° |
| 2026-04-24 16:23 | 2.63104 | -95.25817 | 35004 ft | 512 kts | 148° |
| 2026-04-24 16:24 | 2.54083 | -95.20102 | 35002 ft | 512 kts | 148° |
| 2026-04-24 16:24 | 2.48071 | -95.16294 | 34986 ft | 512 kts | 148° |
| 2026-04-24 16:25 | 2.42050 | -95.12481 | 35004 ft | 512 kts | 148° |
| 2026-04-24 16:25 | 2.36069 | -95.08693 | 35004 ft | 512 kts | 148° |
| 2026-04-24 16:26 | 2.27006 | -95.02955 | 35004 ft | 512 kts | 148° |
| 2026-04-24 16:27 | 2.18023 | -94.97269 | 35003 ft | 512 kts | 148° |
| 2026-04-24 16:27 | 2.12011 | -94.93463 | 35004 ft | 512 kts | 148° |
| 2026-04-24 16:28 | 2.05998 | -94.89657 | 35003 ft | 512 kts | 148° |
| 2026-04-24 16:28 | 1.96973 | -94.83946 | 34986 ft | 512 kts | 148° |
| 2026-04-24 16:29 | 1.90952 | -94.80136 | 35001 ft | 512 kts | 148° |
| 2026-04-24 16:30 | 1.78925 | -94.72526 | 34986 ft | 512 kts | 148° |
| 2026-04-24 16:30 | 1.72952 | -94.68747 | 35000 ft | 512 kts | 148° |
| 2026-04-24 16:31 | 1.66928 | -94.64937 | 35003 ft | 512 kts | 148° |
| 2026-04-24 16:31 | 1.60915 | -94.61133 | 35001 ft | 512 kts | 148° |
| 2026-04-24 16:32 | 1.54902 | -94.57330 | 34997 ft | 512 kts | 148° |
| 2026-04-24 16:32 | 1.48878 | -94.53520 | 34985 ft | 512 kts | 148° |
| 2026-04-24 16:33 | 1.42854 | -94.49710 | 35003 ft | 512 kts | 148° |
| 2026-04-24 16:33 | 1.36840 | -94.45907 | 35005 ft | 512 kts | 148° |
| 2026-04-24 16:34 | 1.30856 | -94.42124 | 35003 ft | 512 kts | 148° |
| 2026-04-24 16:34 | 1.24842 | -94.38321 | 35003 ft | 512 kts | 148° |
| 2026-04-24 16:35 | 1.18818 | -94.34512 | 35003 ft | 512 kts | 148° |
| 2026-04-24 16:35 | 1.12804 | -94.30710 | 35000 ft | 512 kts | 148° |
| 2026-04-24 16:36 | 1.06779 | -94.26901 | 35004 ft | 512 kts | 148° |
| 2026-04-24 16:36 | 1.00764 | -94.23098 | 35003 ft | 512 kts | 148° |
| 2026-04-24 16:37 | 0.94749 | -94.19296 | 35001 ft | 512 kts | 148° |
| 2026-04-24 16:37 | 0.88735 | -94.15494 | 35004 ft | 512 kts | 148° |
| 2026-04-24 16:38 | 0.82710 | -94.11686 | 34986 ft | 512 kts | 148° |
| 2026-04-24 16:38 | 0.76735 | -94.07909 | 35002 ft | 512 kts | 148° |
| 2026-04-24 16:39 | 0.70720 | -94.04108 | 35004 ft | 512 kts | 148° |
| 2026-04-24 16:39 | 0.64695 | -94.00300 | 35003 ft | 512 kts | 148° |
| 2026-04-24 16:40 | 0.58679 | -93.96497 | 35004 ft | 512 kts | 148° |
| 2026-04-24 16:40 | 0.52664 | -93.92696 | 35003 ft | 512 kts | 148° |
| 2026-04-24 16:41 | 0.46649 | -93.88894 | 35002 ft | 512 kts | 148° |
| 2026-04-24 16:41 | 0.40633 | -93.85093 | 35005 ft | 512 kts | 148° |
| 2026-04-24 16:42 | 0.34608 | -93.81285 | 34986 ft | 512 kts | 148° |
| 2026-04-24 16:42 | 0.28592 | -93.77483 | 35000 ft | 512 kts | 148° |
| 2026-04-24 16:43 | 0.22566 | -93.73675 | 35001 ft | 512 kts | 148° |
| 2026-04-24 16:43 | 0.16550 | -93.69874 | 34986 ft | 512 kts | 148° |
| 2026-04-24 16:44 | 0.10533 | -93.66072 | 35001 ft | 512 kts | 148° |
| 2026-04-24 16:44 | 0.04548 | -93.62289 | 35003 ft | 512 kts | 148° |
| 2026-04-24 16:45 | -0.01477 | -93.58482 | 35000 ft | 512 kts | 148° |
| 2026-04-24 16:45 | -0.07495 | -93.54679 | 35003 ft | 512 kts | 148° |
| 2026-04-24 16:46 | -0.13510 | -93.50878 | 35003 ft | 512 kts | 148° |
| 2026-04-24 16:46 | -0.19525 | -93.47076 | 35004 ft | 512 kts | 148° |
| 2026-04-24 16:47 | -0.25552 | -93.43268 | 34986 ft | 512 kts | 148° |
| 2026-04-24 16:47 | -0.31568 | -93.39466 | 35004 ft | 512 kts | 148° |
| 2026-04-24 16:48 | -0.37554 | -93.35683 | 35004 ft | 512 kts | 148° |
| 2026-04-24 16:48 | -0.43571 | -93.31881 | 35003 ft | 512 kts | 148° |
| 2026-04-24 16:49 | -0.49587 | -93.28079 | 35002 ft | 512 kts | 148° |
| 2026-04-24 16:49 | -0.54592 | -93.24916 | 35003 ft | 512 kts | 148° |
| 2026-04-24 16:50 | -0.60619 | -93.21107 | 35002 ft | 512 kts | 148° |
| 2026-04-24 16:50 | -0.66635 | -93.17305 | 35001 ft | 512 kts | 148° |
| 2026-04-24 16:51 | -0.72652 | -93.13502 | 35003 ft | 512 kts | 148° |
| 2026-04-24 16:51 | -0.78668 | -93.09699 | 35000 ft | 512 kts | 148° |
| 2026-04-24 16:52 | -0.84695 | -93.05889 | 34998 ft | 512 kts | 148° |
| 2026-04-24 16:52 | -0.90712 | -93.02086 | 35002 ft | 512 kts | 148° |
| 2026-04-24 16:53 | -0.96728 | -92.98283 | 35003 ft | 512 kts | 148° |
| 2026-04-24 16:53 | -1.02755 | -92.94473 | 35003 ft | 512 kts | 148° |
| 2026-04-24 16:54 | -1.08771 | -92.90670 | 35002 ft | 512 kts | 148° |
| 2026-04-24 16:54 | -1.14789 | -92.86865 | 34986 ft | 512 kts | 148° |
| 2026-04-24 16:55 | -1.20805 | -92.83061 | 35004 ft | 512 kts | 148° |
| 2026-04-24 16:55 | -1.26832 | -92.79251 | 34986 ft | 512 kts | 148° |
| 2026-04-24 16:56 | -1.32808 | -92.75472 | 35004 ft | 512 kts | 148° |
| 2026-04-24 16:56 | -1.38836 | -92.71661 | 34986 ft | 512 kts | 148° |
| 2026-04-24 16:57 | -1.44852 | -92.67856 | 35004 ft | 512 kts | 148° |
| 2026-04-24 16:57 | -1.50868 | -92.64051 | 35003 ft | 512 kts | 148° |
| 2026-04-24 16:58 | -1.56895 | -92.60239 | 35003 ft | 512 kts | 148° |
| 2026-04-24 16:58 | -1.62911 | -92.56434 | 35004 ft | 512 kts | 148° |
| 2026-04-24 16:59 | -1.68928 | -92.52628 | 35003 ft | 512 kts | 148° |
| 2026-04-24 17:00 | -1.77917 | -92.46941 | 35003 ft | 512 kts | 148° |
| 2026-04-24 17:00 | -1.86948 | -92.41227 | 35003 ft | 512 kts | 148° |
| 2026-04-24 17:01 | -1.95977 | -92.35514 | 35004 ft | 512 kts | 148° |
| 2026-04-24 17:02 | -2.05008 | -92.29798 | 34986 ft | 512 kts | 148° |
| 2026-04-24 17:02 | -2.11024 | -92.25991 | 35003 ft | 512 kts | 148° |
| 2026-04-24 17:03 | -2.20054 | -92.20275 | 34986 ft | 512 kts | 148° |
| 2026-04-24 17:04 | -2.26069 | -92.16466 | 35001 ft | 512 kts | 148° |
| 2026-04-24 17:04 | -2.35099 | -92.10749 | 35003 ft | 512 kts | 148° |
| 2026-04-24 17:05 | -2.41115 | -92.06939 | 35002 ft | 512 kts | 148° |
| 2026-04-24 17:06 | -2.50145 | -92.01221 | 35003 ft | 512 kts | 148° |
| 2026-04-24 17:06 | -2.59134 | -91.95527 | 35004 ft | 512 kts | 148° |
| 2026-04-24 17:07 | -2.65160 | -91.91709 | 34986 ft | 512 kts | 148° |
| 2026-04-24 17:08 | -2.77192 | -91.84085 | 35004 ft | 512 kts | 148° |
| 2026-04-24 17:08 | -2.83218 | -91.80266 | 35004 ft | 512 kts | 148° |
| 2026-04-24 17:09 | -2.95259 | -91.72633 | 35004 ft | 512 kts | 148° |
| 2026-04-24 17:10 | -3.07290 | -91.65005 | 35000 ft | 512 kts | 148° |
| 2026-04-24 17:12 | -3.31361 | -91.49735 | 35004 ft | 512 kts | 148° |
| 2026-04-24 18:54 | -15.50676 | -83.49617 | 35001 ft | 513 kts | 146° |
| 2026-04-24 18:55 | -15.59546 | -83.43482 | 35003 ft | 513 kts | 146° |
| 2026-04-24 18:56 | -15.65481 | -83.39373 | 35002 ft | 513 kts | 146° |
| 2026-04-24 18:56 | -15.71417 | -83.35261 | 35001 ft | 513 kts | 146° |
| 2026-04-24 18:57 | -15.77360 | -83.31141 | 34995 ft | 513 kts | 146° |
| 2026-04-24 18:57 | -15.83294 | -83.27025 | 34993 ft | 513 kts | 146° |
| 2026-04-24 18:58 | -15.89236 | -83.22899 | 34999 ft | 513 kts | 146° |
| 2026-04-24 18:58 | -15.95169 | -83.18778 | 34999 ft | 513 kts | 146° |
| 2026-04-24 18:59 | -16.01100 | -83.14655 | 35001 ft | 513 kts | 146° |
| 2026-04-24 18:59 | -16.07040 | -83.10522 | 35001 ft | 513 kts | 146° |
| 2026-04-24 19:00 | -16.12969 | -83.06393 | 35000 ft | 513 kts | 146° |
| 2026-04-24 19:00 | -16.18898 | -83.02263 | 35003 ft | 513 kts | 146° |
| 2026-04-24 19:01 | -16.24796 | -82.98150 | 35000 ft | 513 kts | 146° |
| 2026-04-24 19:01 | -16.30724 | -82.94014 | 35003 ft | 513 kts | 146° |
| 2026-04-24 19:02 | -16.35694 | -82.90543 | 35000 ft | 513 kts | 146° |
| 2026-04-24 19:02 | -16.42587 | -82.85727 | 34997 ft | 513 kts | 146° |
| 2026-04-24 19:03 | -16.48522 | -82.81577 | 35001 ft | 513 kts | 146° |
| 2026-04-24 19:03 | -16.54446 | -82.77430 | 34997 ft | 513 kts | 146° |
| 2026-04-24 19:04 | -16.60378 | -82.73275 | 35004 ft | 513 kts | 146° |
| 2026-04-24 19:04 | -16.66302 | -82.69123 | 35003 ft | 513 kts | 146° |
| 2026-04-24 19:05 | -16.72223 | -82.64970 | 35000 ft | 513 kts | 146° |
| 2026-04-24 19:05 | -16.78115 | -82.60834 | 34996 ft | 513 kts | 146° |
| 2026-04-24 19:06 | -16.84036 | -82.56674 | 35001 ft | 513 kts | 146° |
| 2026-04-24 19:06 | -16.89995 | -82.52485 | 35004 ft | 513 kts | 146° |
| 2026-04-24 19:07 | -16.95884 | -82.48341 | 34996 ft | 513 kts | 146° |
| 2026-04-24 19:07 | -17.00847 | -82.44847 | 34992 ft | 513 kts | 146° |
| 2026-04-24 19:08 | -17.07736 | -82.39992 | 35003 ft | 513 kts | 146° |
| 2026-04-24 19:08 | -17.13659 | -82.35815 | 35003 ft | 513 kts | 146° |
| 2026-04-24 19:09 | -17.19574 | -82.31640 | 34997 ft | 513 kts | 146° |
| 2026-04-24 19:09 | -17.25485 | -82.27465 | 35005 ft | 513 kts | 146° |
| 2026-04-24 19:10 | -17.31412 | -82.23276 | 35055 ft | 517 kts | 146° |
| 2026-04-24 19:10 | -17.34380 | -82.21177 | 34057 ft | 520 kts | 144° |
| 2026-04-24 19:10 | -17.37390 | -82.19047 | 34287 ft | 523 kts | 144° |
| 2026-04-24 19:10 | -17.40421 | -82.16901 | 34520 ft | 527 kts | 144° |
| 2026-04-24 19:11 | -17.43456 | -82.14750 | 34747 ft | 529 kts | 144° |
| 2026-04-24 19:11 | -17.46518 | -82.12580 | 34977 ft | 532 kts | 144° |
| 2026-04-24 19:11 | -17.49587 | -82.10405 | 35125 ft | 536 kts | 144° |
| 2026-04-24 19:12 | -17.55843 | -82.05967 | 35141 ft | 547 kts | 144° |
| 2026-04-24 19:12 | -17.62179 | -82.01468 | 35133 ft | 553 kts | 145° |
| 2026-04-24 19:13 | -17.67490 | -81.97697 | 35133 ft | 555 kts | 145° |
| 2026-04-24 19:13 | -17.73896 | -81.93144 | 35131 ft | 546 kts | 145° |
| 2026-04-24 19:14 | -17.80123 | -81.88715 | 35143 ft | 546 kts | 144° |
| 2026-04-24 19:14 | -17.86443 | -81.84212 | 35138 ft | 551 kts | 144° |
| 2026-04-24 19:15 | -17.92777 | -81.79696 | 35144 ft | 551 kts | 145° |
| 2026-04-24 19:15 | -17.99126 | -81.75167 | 35145 ft | 551 kts | 145° |
| 2026-04-24 19:16 | -18.08648 | -81.68367 | 35141 ft | 552 kts | 145° |
| 2026-04-24 19:16 | -18.14990 | -81.63833 | 35152 ft | 551 kts | 145° |
| 2026-04-24 19:17 | -18.21325 | -81.59299 | 35152 ft | 551 kts | 145° |
| 2026-04-24 19:17 | -18.27624 | -81.54786 | 35145 ft | 551 kts | 145° |
| 2026-04-24 19:18 | -18.33967 | -81.50239 | 35140 ft | 552 kts | 145° |
| 2026-04-24 19:18 | -18.40316 | -81.45684 | 35141 ft | 552 kts | 145° |
| 2026-04-24 19:19 | -18.46663 | -81.41125 | 35145 ft | 552 kts | 145° |
| 2026-04-24 19:19 | -18.53020 | -81.36554 | 35147 ft | 552 kts | 145° |
| 2026-04-24 19:20 | -18.59365 | -81.31989 | 35145 ft | 552 kts | 145° |
| 2026-04-24 19:20 | -18.65706 | -81.27422 | 35143 ft | 552 kts | 145° |
| 2026-04-24 19:21 | -18.72037 | -81.22858 | 35141 ft | 551 kts | 145° |
| 2026-04-24 19:21 | -18.78370 | -81.18289 | 35144 ft | 551 kts | 145° |
| 2026-04-24 19:22 | -18.84690 | -81.13724 | 35162 ft | 551 kts | 145° |
| 2026-04-24 19:22 | -18.91020 | -81.09149 | 35155 ft | 551 kts | 145° |
| 2026-04-24 19:23 | -18.97357 | -81.04562 | 35147 ft | 554 kts | 145° |
| 2026-04-24 19:23 | -19.03682 | -80.99982 | 35150 ft | 554 kts | 145° |
| 2026-04-24 19:24 | -19.10040 | -80.95374 | 35151 ft | 554 kts | 145° |
| 2026-04-24 19:24 | -19.16406 | -80.90754 | 35146 ft | 554 kts | 145° |
| 2026-04-24 19:25 | -19.22743 | -80.86152 | 35152 ft | 552 kts | 145° |
| 2026-04-24 19:25 | -19.29084 | -80.81543 | 35158 ft | 553 kts | 145° |
| 2026-04-24 19:26 | -19.35425 | -80.76929 | 35152 ft | 553 kts | 145° |
| 2026-04-24 19:26 | -19.41778 | -80.72303 | 35152 ft | 554 kts | 145° |
| 2026-04-24 19:27 | -19.48120 | -80.67679 | 35155 ft | 553 kts | 145° |
| 2026-04-24 19:27 | -19.54460 | -80.63052 | 35161 ft | 553 kts | 145° |
| 2026-04-24 19:28 | -19.60805 | -80.58415 | 35160 ft | 553 kts | 145° |
| 2026-04-24 19:28 | -19.67135 | -80.53788 | 35155 ft | 553 kts | 145° |
| 2026-04-24 19:29 | -19.76637 | -80.46833 | 35161 ft | 553 kts | 145° |
| 2026-04-24 19:30 | -19.82969 | -80.42191 | 35163 ft | 553 kts | 145° |
| 2026-04-24 19:30 | -19.89259 | -80.37576 | 35170 ft | 554 kts | 146° |
| 2026-04-24 19:31 | -19.95607 | -80.32913 | 35164 ft | 554 kts | 146° |
| 2026-04-24 19:31 | -20.01945 | -80.28253 | 35162 ft | 554 kts | 145° |
| 2026-04-24 19:32 | -20.08294 | -80.23581 | 35161 ft | 554 kts | 145° |
| 2026-04-24 19:32 | -20.14632 | -80.18913 | 35158 ft | 554 kts | 145° |
| 2026-04-24 19:33 | -20.20966 | -80.14241 | 35167 ft | 554 kts | 146° |
| 2026-04-24 19:33 | -20.27302 | -80.09565 | 35168 ft | 555 kts | 146° |
| 2026-04-24 19:34 | -20.33651 | -80.04874 | 35164 ft | 555 kts | 146° |
| 2026-04-24 19:34 | -20.39527 | -80.00529 | 35164 ft | 555 kts | 145° |
| 2026-04-24 19:35 | -20.45880 | -79.95824 | 35168 ft | 555 kts | 145° |
| 2026-04-24 19:35 | -20.52223 | -79.91124 | 35176 ft | 555 kts | 146° |
| 2026-04-24 19:36 | -20.58558 | -79.86425 | 35166 ft | 556 kts | 146° |
| 2026-04-24 19:36 | -20.64867 | -79.81740 | 35166 ft | 557 kts | 146° |
| 2026-04-24 19:37 | -20.71230 | -79.77010 | 35166 ft | 556 kts | 146° |
| 2026-04-24 19:37 | -20.77561 | -79.72299 | 35168 ft | 556 kts | 146° |
| 2026-04-24 19:38 | -20.83911 | -79.67568 | 35177 ft | 556 kts | 146° |
| 2026-04-24 19:38 | -20.90269 | -79.62827 | 35168 ft | 558 kts | 146° |
| 2026-04-24 19:39 | -20.96638 | -79.58072 | 35168 ft | 558 kts | 146° |
| 2026-04-24 19:39 | -21.03009 | -79.53311 | 35169 ft | 558 kts | 146° |
| 2026-04-24 19:40 | -21.09375 | -79.48549 | 35167 ft | 558 kts | 146° |
| 2026-04-24 19:40 | -21.15734 | -79.43786 | 35174 ft | 559 kts | 146° |
| 2026-04-24 19:41 | -21.22113 | -79.39004 | 35171 ft | 560 kts | 146° |
| 2026-04-24 19:41 | -21.28495 | -79.34216 | 35170 ft | 560 kts | 146° |
| 2026-04-24 19:42 | -21.34887 | -79.29413 | 35172 ft | 560 kts | 146° |
| 2026-04-24 19:42 | -21.41269 | -79.24612 | 35166 ft | 560 kts | 146° |
| 2026-04-24 19:43 | -21.47653 | -79.19806 | 35170 ft | 560 kts | 146° |
| 2026-04-24 19:43 | -21.54031 | -79.14999 | 35170 ft | 560 kts | 146° |
| 2026-04-24 19:44 | -21.60367 | -79.10218 | 35165 ft | 560 kts | 146° |
| 2026-04-24 19:44 | -21.66735 | -79.05407 | 35165 ft | 560 kts | 146° |
| 2026-04-24 19:45 | -21.73098 | -79.00595 | 35167 ft | 559 kts | 146° |
| 2026-04-24 19:45 | -21.79468 | -78.95774 | 35167 ft | 559 kts | 146° |
| 2026-04-24 19:46 | -21.85826 | -78.90954 | 35165 ft | 559 kts | 146° |
| 2026-04-24 19:46 | -21.92203 | -78.86116 | 35165 ft | 559 kts | 146° |
| 2026-04-24 19:47 | -21.98544 | -78.81299 | 35165 ft | 559 kts | 146° |
| 2026-04-24 19:47 | -22.04897 | -78.76468 | 35166 ft | 559 kts | 146° |
| 2026-04-24 19:48 | -22.11260 | -78.71623 | 35173 ft | 559 kts | 146° |
| 2026-04-24 19:48 | -22.20785 | -78.64361 | 35169 ft | 559 kts | 146° |
| 2026-04-24 19:49 | -22.33470 | -78.54673 | 35169 ft | 559 kts | 146° |
| 2026-04-24 19:50 | -22.46139 | -78.44972 | 35165 ft | 561 kts | 146° |
| 2026-04-24 19:51 | -22.55698 | -78.37640 | 35169 ft | 562 kts | 146° |
| 2026-04-24 19:52 | -22.65265 | -78.30289 | 35168 ft | 561 kts | 146° |
| 2026-04-24 19:52 | -22.71638 | -78.25385 | 35172 ft | 564 kts | 146° |
| 2026-04-24 19:53 | -22.78040 | -78.20452 | 35165 ft | 566 kts | 146° |
| 2026-04-24 19:54 | -22.87661 | -78.13028 | 35173 ft | 566 kts | 146° |
| 2026-04-24 19:54 | -22.94039 | -78.08099 | 35167 ft | 566 kts | 146° |
| 2026-04-24 19:55 | -22.98326 | -78.04783 | 35171 ft | 566 kts | 147° |
| 2026-04-24 19:55 | -23.06882 | -77.98156 | 35186 ft | 568 kts | 147° |
| 2026-04-24 19:56 | -23.13306 | -77.93175 | 35171 ft | 567 kts | 147° |
| 2026-04-24 19:56 | -23.19720 | -77.88194 | 35164 ft | 567 kts | 147° |
| 2026-04-24 19:57 | -23.26132 | -77.83210 | 35172 ft | 567 kts | 146° |
| 2026-04-24 19:57 | -23.32549 | -77.78215 | 35170 ft | 567 kts | 147° |
| 2026-04-24 19:58 | -23.38964 | -77.73216 | 35167 ft | 568 kts | 147° |
| 2026-04-24 19:58 | -23.45391 | -77.68201 | 35170 ft | 568 kts | 147° |
| 2026-04-24 19:59 | -23.51773 | -77.63216 | 35169 ft | 568 kts | 147° |
| 2026-04-24 19:59 | -23.58205 | -77.58184 | 35178 ft | 568 kts | 147° |
| 2026-04-24 20:00 | -23.64625 | -77.53156 | 35169 ft | 569 kts | 147° |
| 2026-04-24 20:00 | -23.71056 | -77.48115 | 35170 ft | 569 kts | 147° |
| 2026-04-24 20:01 | -23.77481 | -77.43072 | 35172 ft | 569 kts | 147° |
| 2026-04-24 20:01 | -23.82865 | -77.38840 | 35170 ft | 569 kts | 147° |
| 2026-04-24 20:02 | -23.89284 | -77.33788 | 35174 ft | 570 kts | 147° |
| 2026-04-24 20:02 | -23.95738 | -77.28706 | 35170 ft | 572 kts | 147° |
| 2026-04-24 20:03 | -24.02128 | -77.23665 | 35174 ft | 572 kts | 147° |
| 2026-04-24 20:03 | -24.08584 | -77.18565 | 35173 ft | 571 kts | 147° |
| 2026-04-24 20:04 | -24.15016 | -77.13478 | 35174 ft | 570 kts | 147° |
| 2026-04-24 20:04 | -24.21460 | -77.08375 | 35177 ft | 573 kts | 148° |
| 2026-04-24 20:05 | -24.27951 | -77.03230 | 35174 ft | 573 kts | 148° |
| 2026-04-24 20:05 | -24.34410 | -76.98102 | 35179 ft | 573 kts | 147° |
| 2026-04-24 20:06 | -24.40815 | -76.93011 | 35177 ft | 574 kts | 147° |
| 2026-04-24 20:06 | -24.47287 | -76.87859 | 35183 ft | 574 kts | 148° |
| 2026-04-24 20:07 | -24.52716 | -76.83533 | 35178 ft | 575 kts | 148° |
| 2026-04-24 20:07 | -24.60215 | -76.77551 | 35177 ft | 575 kts | 148° |
| 2026-04-24 20:08 | -24.66687 | -76.72381 | 35175 ft | 575 kts | 148° |
| 2026-04-24 20:08 | -24.73153 | -76.67209 | 35178 ft | 575 kts | 148° |
| 2026-04-24 20:09 | -24.79768 | -76.62274 | 35184 ft | 570 kts | 155° |
| 2026-04-24 20:09 | -24.86703 | -76.58117 | 35178 ft | 569 kts | 157° |
| 2026-04-24 20:10 | -24.93723 | -76.54080 | 35181 ft | 568 kts | 157° |
| 2026-04-24 20:10 | -25.00686 | -76.50080 | 35169 ft | 568 kts | 157° |
| 2026-04-24 20:11 | -25.07684 | -76.46030 | 35184 ft | 568 kts | 157° |
| 2026-04-24 20:11 | -25.14681 | -76.41967 | 35181 ft | 569 kts | 157° |
| 2026-04-24 20:12 | -25.21688 | -76.37889 | 35180 ft | 569 kts | 157° |
| 2026-04-24 20:12 | -25.28687 | -76.33812 | 35181 ft | 569 kts | 157° |
| 2026-04-24 20:13 | -25.35689 | -76.29729 | 35183 ft | 570 kts | 157° |
| 2026-04-24 20:13 | -25.42712 | -76.25629 | 35184 ft | 571 kts | 157° |
| 2026-04-24 20:14 | -25.49740 | -76.21519 | 35183 ft | 572 kts | 157° |
| 2026-04-24 20:14 | -25.56779 | -76.17396 | 35184 ft | 572 kts | 157° |
| 2026-04-24 20:15 | -25.63761 | -76.13302 | 35186 ft | 572 kts | 158° |
| 2026-04-24 20:15 | -25.70843 | -76.09144 | 35188 ft | 573 kts | 158° |
| 2026-04-24 20:16 | -25.77845 | -76.05028 | 35188 ft | 573 kts | 158° |
| 2026-04-24 20:16 | -25.84880 | -76.00887 | 35187 ft | 573 kts | 158° |
| 2026-04-24 20:17 | -25.91910 | -75.96741 | 35194 ft | 572 kts | 158° |
| 2026-04-24 20:17 | -26.02454 | -75.90515 | 35186 ft | 572 kts | 158° |
| 2026-04-24 20:18 | -26.09486 | -75.86356 | 35190 ft | 572 kts | 158° |
| 2026-04-24 20:18 | -26.16506 | -75.82198 | 35221 ft | 572 kts | 158° |
| 2026-04-24 20:19 | -26.23531 | -75.78031 | 35177 ft | 573 kts | 158° |
| 2026-04-24 20:19 | -26.30569 | -75.73851 | 35187 ft | 572 kts | 158° |
| 2026-04-24 20:20 | -26.37544 | -75.69703 | 35182 ft | 572 kts | 158° |
| 2026-04-24 20:20 | -26.44565 | -75.65521 | 35218 ft | 572 kts | 158° |
| 2026-04-24 20:21 | -26.51598 | -75.61326 | 35188 ft | 572 kts | 159° |
| 2026-04-24 20:21 | -26.58622 | -75.57131 | 35186 ft | 573 kts | 159° |
| 2026-04-24 20:22 | -26.65654 | -75.52926 | 35193 ft | 573 kts | 159° |
| 2026-04-24 20:22 | -26.72678 | -75.48719 | 35211 ft | 573 kts | 159° |
| 2026-04-24 20:23 | -26.79706 | -75.44501 | 35186 ft | 572 kts | 159° |
| 2026-04-24 20:23 | -26.86721 | -75.40289 | 35191 ft | 572 kts | 159° |
| 2026-04-24 20:24 | -26.93735 | -75.36071 | 35192 ft | 572 kts | 159° |
| 2026-04-24 20:24 | -27.00708 | -75.31870 | 35210 ft | 572 kts | 159° |
| 2026-04-24 20:25 | -27.07718 | -75.27642 | 35191 ft | 573 kts | 159° |
| 2026-04-24 20:25 | -27.14733 | -75.23405 | 35193 ft | 573 kts | 159° |
| 2026-04-24 20:26 | -27.21754 | -75.19158 | 35188 ft | 573 kts | 159° |
| 2026-04-24 20:26 | -27.28765 | -75.14909 | 35211 ft | 573 kts | 160° |
| 2026-04-24 20:27 | -27.35779 | -75.10653 | 35195 ft | 573 kts | 160° |
| 2026-04-24 20:27 | -27.42797 | -75.06390 | 35190 ft | 573 kts | 160° |
| 2026-04-24 20:28 | -27.49823 | -75.02116 | 35191 ft | 573 kts | 160° |
| 2026-04-24 20:28 | -27.56836 | -74.97842 | 35192 ft | 573 kts | 160° |
| 2026-04-24 20:29 | -27.63846 | -74.93564 | 35192 ft | 573 kts | 160° |
| 2026-04-24 20:29 | -27.70867 | -74.89274 | 35192 ft | 573 kts | 160° |
| 2026-04-24 20:30 | -27.77875 | -74.84985 | 35194 ft | 573 kts | 160° |
| 2026-04-24 20:30 | -27.84885 | -74.80687 | 35205 ft | 573 kts | 160° |
| 2026-04-24 20:31 | -27.91913 | -74.76373 | 35194 ft | 573 kts | 160° |
| 2026-04-24 20:31 | -27.98925 | -74.72063 | 35195 ft | 573 kts | 160° |
| 2026-04-24 20:32 | -28.05871 | -74.67787 | 35193 ft | 573 kts | 160° |
| 2026-04-24 20:32 | -28.12877 | -74.63466 | 35192 ft | 574 kts | 160° |
| 2026-04-24 20:33 | -28.19885 | -74.59139 | 35189 ft | 574 kts | 160° |
| 2026-04-24 20:33 | -28.26894 | -74.54805 | 35192 ft | 574 kts | 160° |
| 2026-04-24 20:34 | -28.33913 | -74.50457 | 35192 ft | 574 kts | 160° |
| 2026-04-24 20:34 | -28.40923 | -74.46108 | 35191 ft | 575 kts | 161° |
| 2026-04-24 20:35 | -28.47954 | -74.41742 | 35189 ft | 575 kts | 161° |
| 2026-04-24 20:35 | -28.54963 | -74.37309 | 35189 ft | 578 kts | 159° |
| 2026-04-24 20:36 | -28.61880 | -74.32636 | 35216 ft | 579 kts | 158° |
| 2026-04-24 20:36 | -28.68774 | -74.27931 | 35189 ft | 577 kts | 159° |
| 2026-04-24 20:37 | -28.75683 | -74.23263 | 35190 ft | 576 kts | 159° |
| 2026-04-24 20:37 | -28.82539 | -74.18655 | 35190 ft | 576 kts | 159° |
| 2026-04-24 20:38 | -28.89464 | -74.13995 | 35207 ft | 576 kts | 160° |
| 2026-04-24 20:38 | -28.96337 | -74.09360 | 35190 ft | 575 kts | 160° |
| 2026-04-24 20:39 | -29.03226 | -74.04705 | 35192 ft | 574 kts | 160° |
| 2026-04-24 20:39 | -29.10100 | -74.00054 | 35179 ft | 574 kts | 160° |
| 2026-04-24 20:40 | -29.16985 | -73.95387 | 35203 ft | 574 kts | 160° |
| 2026-04-24 20:40 | -29.23851 | -73.90725 | 35183 ft | 574 kts | 160° |
| 2026-04-24 20:41 | -29.30716 | -73.86058 | 35189 ft | 574 kts | 160° |
| 2026-04-24 20:41 | -29.37578 | -73.81385 | 35189 ft | 574 kts | 160° |
| 2026-04-24 20:42 | -29.44442 | -73.76701 | 35182 ft | 573 kts | 160° |
| 2026-04-24 20:42 | -29.51281 | -73.72028 | 35187 ft | 572 kts | 160° |
| 2026-04-24 20:43 | -29.58082 | -73.67376 | 35186 ft | 572 kts | 160° |
| 2026-04-24 20:43 | -29.64914 | -73.62694 | 35188 ft | 572 kts | 160° |
| 2026-04-24 20:44 | -29.71780 | -73.57980 | 35187 ft | 570 kts | 160° |
| 2026-04-24 20:44 | -29.78545 | -73.53328 | 35184 ft | 569 kts | 160° |
| 2026-04-24 20:45 | -29.85337 | -73.48652 | 35180 ft | 569 kts | 160° |
| 2026-04-24 20:45 | -29.92151 | -73.43954 | 35205 ft | 568 kts | 159° |
| 2026-04-24 20:46 | -29.98918 | -73.39276 | 35183 ft | 566 kts | 159° |
| 2026-04-24 20:46 | -30.05651 | -73.34618 | 35178 ft | 565 kts | 159° |
| 2026-04-24 20:47 | -30.12394 | -73.29945 | 35176 ft | 565 kts | 159° |
| 2026-04-24 20:47 | -30.19152 | -73.25255 | 35181 ft | 567 kts | 160° |
| 2026-04-24 20:48 | -30.24784 | -73.21341 | 35179 ft | 567 kts | 160° |
| 2026-04-24 20:48 | -30.32686 | -73.15837 | 35178 ft | 567 kts | 159° |
| 2026-04-24 20:49 | -30.39387 | -73.11162 | 35178 ft | 567 kts | 159° |
| 2026-04-24 20:49 | -30.46172 | -73.06421 | 35183 ft | 564 kts | 159° |
| 2026-04-24 20:50 | -30.52851 | -73.01745 | 35176 ft | 563 kts | 159° |
| 2026-04-24 20:50 | -30.59557 | -72.97045 | 35177 ft | 563 kts | 159° |
| 2026-04-24 20:51 | -30.66264 | -72.92336 | 35199 ft | 563 kts | 159° |
| 2026-04-24 20:51 | -30.72960 | -72.87626 | 35176 ft | 561 kts | 158° |
| 2026-04-24 20:52 | -30.79634 | -72.82925 | 35176 ft | 561 kts | 158° |
| 2026-04-24 20:52 | -30.85178 | -72.79015 | 35171 ft | 561 kts | 158° |
| 2026-04-24 20:53 | -30.91847 | -72.74304 | 35195 ft | 560 kts | 158° |
| 2026-04-24 20:53 | -30.98483 | -72.69603 | 35175 ft | 556 kts | 158° |
| 2026-04-24 20:54 | -31.05096 | -72.64920 | 35173 ft | 555 kts | 158° |
| 2026-04-24 20:54 | -31.11760 | -72.60420 | 35173 ft | 553 kts | 160° |
| 2026-04-24 20:55 | -31.18452 | -72.55992 | 35178 ft | 551 kts | 159° |
| 2026-04-24 20:55 | -31.25114 | -72.51555 | 35171 ft | 550 kts | 159° |
| 2026-04-24 20:56 | -31.31725 | -72.47119 | 35177 ft | 550 kts | 159° |
| 2026-04-24 20:56 | -31.38314 | -72.42670 | 34970 ft | 536 kts | 159° |
| 2026-04-24 20:57 | -31.41502 | -72.40503 | 34772 ft | 523 kts | 158° |
| 2026-04-24 20:57 | -31.44614 | -72.38389 | 34532 ft | 512 kts | 158° |
| 2026-04-24 20:57 | -31.47681 | -72.36312 | 34303 ft | 507 kts | 158° |
| 2026-04-24 20:57 | -31.50732 | -72.34255 | 34058 ft | 504 kts | 158° |
| 2026-04-24 20:58 | -31.53767 | -72.32207 | 33777 ft | 501 kts | 158° |
| 2026-04-24 20:58 | -31.56780 | -72.30170 | 33524 ft | 499 kts | 158° |
| 2026-04-24 20:58 | -31.59775 | -72.28143 | 33271 ft | 496 kts | 158° |
| 2026-04-24 20:58 | -31.62751 | -72.26126 | 33005 ft | 493 kts | 158° |
| 2026-04-24 20:59 | -31.65720 | -72.24111 | 32777 ft | 490 kts | 158° |
| 2026-04-24 20:59 | -31.68660 | -72.22114 | 32531 ft | 488 kts | 158° |
| 2026-04-24 20:59 | -31.71592 | -72.20120 | 32277 ft | 485 kts | 158° |
| 2026-04-24 20:59 | -31.74495 | -72.18145 | 32028 ft | 483 kts | 158° |
| 2026-04-24 21:00 | -31.77388 | -72.16175 | 31779 ft | 480 kts | 158° |
| 2026-04-24 21:00 | -31.80261 | -72.14216 | 31540 ft | 477 kts | 158° |
| 2026-04-24 21:00 | -31.83129 | -72.12260 | 31290 ft | 474 kts | 158° |
| 2026-04-24 21:00 | -31.85988 | -72.10309 | 31029 ft | 472 kts | 158° |
| 2026-04-24 21:01 | -31.88828 | -72.08370 | 30836 ft | 469 kts | 159° |
| 2026-04-24 21:01 | -31.91640 | -72.06449 | 30608 ft | 466 kts | 159° |
| 2026-04-24 21:01 | -31.94413 | -72.04547 | 30293 ft | 457 kts | 159° |
| 2026-04-24 21:01 | -31.97125 | -72.02686 | 29838 ft | 450 kts | 159° |
| 2026-04-24 21:02 | -31.99812 | -72.00842 | 29388 ft | 443 kts | 159° |
| 2026-04-24 21:02 | -32.02424 | -71.99050 | 28964 ft | 437 kts | 159° |
| 2026-04-24 21:02 | -32.05073 | -71.97233 | 28525 ft | 430 kts | 159° |
| 2026-04-24 21:02 | -32.07608 | -71.95494 | 28121 ft | 424 kts | 159° |
| 2026-04-24 21:03 | -32.10175 | -71.93733 | 27694 ft | 419 kts | 159° |
| 2026-04-24 21:03 | -32.12681 | -71.92013 | 27291 ft | 414 kts | 159° |
| 2026-04-24 21:03 | -32.15124 | -71.90336 | 26873 ft | 410 kts | 159° |
| 2026-04-24 21:03 | -32.17585 | -71.88648 | 26461 ft | 409 kts | 159° |
| 2026-04-24 21:04 | -32.20042 | -71.86964 | 26051 ft | 408 kts | 158° |
| 2026-04-24 21:04 | -32.22490 | -71.85282 | 25637 ft | 406 kts | 158° |
| 2026-04-24 21:04 | -32.24922 | -71.83606 | 25192 ft | 403 kts | 158° |
| 2026-04-24 21:04 | -32.27334 | -71.81940 | 24765 ft | 400 kts | 158° |
| 2026-04-24 21:05 | -32.29707 | -71.80246 | 24523 ft | 403 kts | 154° |
| 2026-04-24 21:05 | -32.31931 | -71.78094 | 24429 ft | 419 kts | 141° |
| 2026-04-24 21:05 | -32.33838 | -71.75482 | 23993 ft | 421 kts | 134° |
| 2026-04-24 21:05 | -32.35614 | -71.72749 | 23490 ft | 420 kts | 133° |
| 2026-04-24 21:06 | -32.37373 | -71.69995 | 22981 ft | 416 kts | 132° |
| 2026-04-24 21:06 | -32.39101 | -71.67285 | 22512 ft | 412 kts | 132° |
| 2026-04-24 21:06 | -32.40820 | -71.64588 | 22044 ft | 408 kts | 132° |
| 2026-04-24 21:06 | -32.42527 | -71.61910 | 21583 ft | 404 kts | 132° |
| 2026-04-24 21:07 | -32.44203 | -71.59279 | 21140 ft | 400 kts | 131° |
| 2026-04-24 21:07 | -32.45882 | -71.56641 | 20670 ft | 397 kts | 131° |
| 2026-04-24 21:07 | -32.47539 | -71.54039 | 20207 ft | 394 kts | 131° |
| 2026-04-24 21:07 | -32.49181 | -71.51455 | 19766 ft | 391 kts | 131° |
| 2026-04-24 21:08 | -32.50812 | -71.48889 | 19319 ft | 389 kts | 130° |
| 2026-04-24 21:08 | -32.52435 | -71.46333 | 18873 ft | 387 kts | 130° |
| 2026-04-24 21:08 | -32.54050 | -71.43787 | 18417 ft | 385 kts | 130° |
| 2026-04-24 21:08 | -32.55653 | -71.41261 | 17940 ft | 383 kts | 130° |
| 2026-04-24 21:09 | -32.57246 | -71.38747 | 17480 ft | 378 kts | 129° |
| 2026-04-24 21:09 | -32.58790 | -71.36310 | 17051 ft | 375 kts | 129° |
| 2026-04-24 21:09 | -32.60345 | -71.33851 | 16624 ft | 372 kts | 129° |
| 2026-04-24 21:09 | -32.61890 | -71.31406 | 16198 ft | 368 kts | 129° |
| 2026-04-24 21:10 | -32.63424 | -71.28979 | 15756 ft | 366 kts | 129° |
| 2026-04-24 21:10 | -32.64938 | -71.26582 | 15326 ft | 362 kts | 129° |
| 2026-04-24 21:10 | -32.66448 | -71.24192 | 14914 ft | 359 kts | 128° |
| 2026-04-24 21:10 | -32.67937 | -71.21829 | 14501 ft | 356 kts | 128° |
| 2026-04-24 21:11 | -32.69415 | -71.19483 | 14074 ft | 353 kts | 128° |
| 2026-04-24 21:11 | -32.70880 | -71.17158 | 13630 ft | 350 kts | 128° |
| 2026-04-24 21:11 | -32.72333 | -71.14855 | 13200 ft | 346 kts | 128° |
| 2026-04-24 21:11 | -32.73766 | -71.12580 | 12807 ft | 342 kts | 127° |
| 2026-04-24 21:12 | -32.75181 | -71.10324 | 12398 ft | 338 kts | 127° |
| 2026-04-24 21:12 | -32.76580 | -71.08099 | 12017 ft | 334 kts | 127° |
| 2026-04-24 21:12 | -32.77953 | -71.05912 | 11610 ft | 330 kts | 127° |
| 2026-04-24 21:12 | -32.79330 | -71.03715 | 11201 ft | 329 kts | 127° |
| 2026-04-24 21:13 | -32.80693 | -71.01543 | 10910 ft | 324 kts | 127° |
| 2026-04-24 21:13 | -32.81993 | -70.99470 | 10774 ft | 310 kts | 127° |
| 2026-04-24 21:13 | -32.83258 | -70.97451 | 10648 ft | 299 kts | 127° |
| 2026-04-24 21:13 | -32.84479 | -70.95499 | 10450 ft | 292 kts | 127° |
| 2026-04-24 21:14 | -32.85687 | -70.93568 | 10141 ft | 290 kts | 126° |
| 2026-04-24 21:14 | -32.86915 | -70.91606 | 9833 ft | 298 kts | 126° |
| 2026-04-24 21:14 | -32.88151 | -70.89626 | 9708 ft | 305 kts | 126° |
| 2026-04-24 21:14 | -32.89408 | -70.87612 | 9352 ft | 302 kts | 126° |
| 2026-04-24 21:15 | -32.90674 | -70.85617 | 8889 ft | 301 kts | 128° |
| 2026-04-24 21:15 | -32.92235 | -70.84003 | 8550 ft | 297 kts | 153° |
| 2026-04-24 21:15 | -32.94182 | -70.83301 | 8267 ft | 293 kts | 172° |
| 2026-04-24 21:15 | -32.96202 | -70.82980 | 7974 ft | 293 kts | 174° |
| 2026-04-24 21:16 | -32.98231 | -70.82693 | 7702 ft | 292 kts | 174° |
| 2026-04-24 21:16 | -33.00237 | -70.82402 | 7381 ft | 288 kts | 173° |
| 2026-04-24 21:16 | -33.02215 | -70.82180 | 7055 ft | 284 kts | 178° |
| 2026-04-24 21:16 | -33.04182 | -70.82104 | 6757 ft | 281 kts | 179° |
| 2026-04-24 21:17 | -33.06134 | -70.82040 | 6532 ft | 280 kts | 178° |
| 2026-04-24 21:17 | -33.08074 | -70.81954 | 6066 ft | 279 kts | 177° |
| 2026-04-24 21:17 | -33.10005 | -70.81852 | 5658 ft | 276 kts | 177° |
| 2026-04-24 21:17 | -33.11268 | -70.81779 | 5422 ft | 272 kts | 177° |
| 2026-04-24 21:18 | -33.13779 | -70.81626 | 5186 ft | 269 kts | 177° |
| 2026-04-24 21:18 | -33.15642 | -70.81525 | 5163 ft | 264 kts | 178° |
| 2026-04-24 21:18 | -33.17417 | -70.81431 | 5155 ft | 246 kts | 177° |
| 2026-04-24 21:18 | -33.19056 | -70.81345 | 5103 ft | 232 kts | 178° |
| 2026-04-24 21:19 | -33.20647 | -70.81260 | 4856 ft | 226 kts | 177° |
| 2026-04-24 21:19 | -33.22208 | -70.81175 | 4540 ft | 223 kts | 177° |
| 2026-04-24 21:19 | -33.23748 | -70.81093 | 4206 ft | 220 kts | 177° |
| 2026-04-24 21:19 | -33.25259 | -70.81012 | 3904 ft | 215 kts | 177° |
| 2026-04-24 21:20 | -33.28160 | -70.80856 | 3358 ft | 201 kts | 178° |
| 2026-04-24 21:20 | -33.29530 | -70.80784 | 3099 ft | 194 kts | 178° |
| 2026-04-24 21:20 | -33.30848 | -70.80715 | 2838 ft | 184 kts | 176° |
| 2026-04-24 21:21 | -33.32067 | -70.80649 | 2599 ft | 167 kts | 176° |
| 2026-04-24 21:21 | -33.33175 | -70.80590 | 2380 ft | 153 kts | 175° |
| 2026-04-24 21:21 | -33.34202 | -70.80533 | 2171 ft | 140 kts | 176° |
| 2026-04-24 21:21 | -33.35138 | -70.80483 | 1998 ft | 130 kts | 176° |
| 2026-04-24 21:22 | -33.36041 | -70.80431 | 1818 ft | 130 kts | 175° |
| 2026-04-24 21:22 | -33.36946 | -70.80386 | 1635 ft | 130 kts | 176° |
| 2026-04-24 21:22 | -33.37824 | -70.80342 | 1562 ft | 117 kts | 177° |
| 2026-04-24 21:22 | -33.38534 | -70.80299 | 1564 ft | 89 kts | 177° |
| 2026-04-24 21:23 | -33.39098 | -70.80270 | 1566 ft | 74 kts | 177° |
| 2026-04-24 21:23 | -33.39582 | -70.80246 | 1564 ft | 65 kts | 178° |
| 2026-04-24 21:23 | -33.39972 | -70.80158 | 1567 ft | 43 kts | 150° |
| 2026-04-24 21:23 | -33.40148 | -70.80010 | 1568 ft | 23 kts | 122° |
| 2026-04-24 21:24 | -33.40150 | -70.79839 | 1568 ft | 19 kts | 86° |
| 2026-04-24 21:24 | -33.40135 | -70.79703 | 1567 ft | 14 kts | 61° |
| 2026-04-24 21:24 | -33.40093 | -70.79619 | 1567 ft | 9 kts | 58° |
| 2026-04-24 21:24 | -33.40072 | -70.79580 | 1567 ft | 0 kts | 58° |